<?xml version="1.0" encoding="UTF-8" standalone="no" ?>
<gpx xmlns="http://www.topografix.com/GPX/1/1" xmlns:xsi="http://www.w3.org/2001/XMLSchema-instance" xsi:schemaLocation="http://www.topografix.com/GPX/1/1 http://www.topografix.com/GPX/1/1/gpx.xsd" version="1.1" creator="VisuGPX - https://www.visugpx.com">
  <metadata>
    <name>La Bosmiaude 2025</name>
  </metadata>
  <trk>
    <name><![CDATA[La Bosmiaude 2025]]></name>
    <extensions>
      <line xmlns="http://www.topografix.com/GPX/gpx_style/0/2">
        <color>0000FF</color>
        <width>4</width>
      </line>
    </extensions>
    <trkseg>
      <trkpt lat="45.76487" lon="1.20554">
        <ele>312</ele>
        <time>2025-06-22T06:10:53.000Z</time>
      </trkpt>
      <trkpt lat="45.76502" lon="1.20599">
        <ele>313</ele>
        <time>2025-06-22T06:11:01.000Z</time>
      </trkpt>
      <trkpt lat="45.76518" lon="1.20657">
        <ele>312.6</ele>
        <time>2025-06-22T06:39:44.000Z</time>
      </trkpt>
      <trkpt lat="45.76467" lon="1.20679">
        <ele>312.6</ele>
        <time>2025-06-22T06:40:03.000Z</time>
      </trkpt>
      <trkpt lat="45.76414" lon="1.20725">
        <ele>313.1</ele>
        <time>2025-06-22T06:40:14.000Z</time>
      </trkpt>
      <trkpt lat="45.76388" lon="1.20736">
        <ele>318.20001220703</ele>
        <time>2025-06-22T06:40:20.000Z</time>
      </trkpt>
      <trkpt lat="45.76373" lon="1.20738">
        <ele>314.3</ele>
        <time>2025-06-22T06:40:28.000Z</time>
      </trkpt>
      <trkpt lat="45.76351" lon="1.20736">
        <ele>319</ele>
        <time>2025-06-22T06:40:30.000Z</time>
      </trkpt>
      <trkpt lat="45.76315" lon="1.20735">
        <ele>315.3</ele>
        <time>2025-06-22T06:40:40.000Z</time>
      </trkpt>
      <trkpt lat="45.76291" lon="1.2074">
        <ele>316.6</ele>
        <time>2025-06-22T06:40:47.000Z</time>
      </trkpt>
      <trkpt lat="45.7627" lon="1.2075">
        <ele>318</ele>
        <time>2025-06-22T06:40:54.000Z</time>
      </trkpt>
      <trkpt lat="45.76255" lon="1.20768">
        <ele>318.5</ele>
        <time>2025-06-22T06:40:59.000Z</time>
      </trkpt>
      <trkpt lat="45.76205" lon="1.20807">
        <ele>322.7</ele>
        <time>2025-06-22T06:41:15.000Z</time>
      </trkpt>
      <trkpt lat="45.76189" lon="1.20828">
        <ele>327.79998779297</ele>
        <time>2025-06-22T06:41:26.000Z</time>
      </trkpt>
      <trkpt lat="45.7617" lon="1.20841">
        <ele>324</ele>
        <time>2025-06-22T06:41:35.000Z</time>
      </trkpt>
      <trkpt lat="45.76155" lon="1.20849">
        <ele>324.2</ele>
        <time>2025-06-22T06:41:41.000Z</time>
      </trkpt>
      <trkpt lat="45.7613" lon="1.20859">
        <ele>324.4</ele>
        <time>2025-06-22T06:41:47.000Z</time>
      </trkpt>
      <trkpt lat="45.761" lon="1.20863">
        <ele>325.3</ele>
        <time>2025-06-22T06:41:55.000Z</time>
      </trkpt>
      <trkpt lat="45.76091" lon="1.20841">
        <ele>326.3</ele>
        <time>2025-06-22T06:42:02.000Z</time>
      </trkpt>
      <trkpt lat="45.76074" lon="1.20831">
        <ele>326.6</ele>
        <time>2025-06-22T06:42:08.000Z</time>
      </trkpt>
      <trkpt lat="45.76054" lon="1.20827">
        <ele>326</ele>
        <time>2025-06-22T06:42:14.000Z</time>
      </trkpt>
      <trkpt lat="45.7604" lon="1.20842">
        <ele>326</ele>
        <time>2025-06-22T06:42:19.000Z</time>
      </trkpt>
      <trkpt lat="45.76004" lon="1.20848">
        <ele>326.4</ele>
        <time>2025-06-22T06:42:29.000Z</time>
      </trkpt>
      <trkpt lat="45.75995" lon="1.20843">
        <ele>326.9</ele>
        <time>2025-06-22T06:42:33.000Z</time>
      </trkpt>
      <trkpt lat="45.75964" lon="1.20848">
        <ele>328.6</ele>
        <time>2025-06-22T06:42:43.000Z</time>
      </trkpt>
      <trkpt lat="45.75892" lon="1.20876">
        <ele>336</ele>
        <time>2025-06-22T06:43:10.000Z</time>
      </trkpt>
      <trkpt lat="45.75787" lon="1.2091">
        <ele>336.2</ele>
        <time>2025-06-22T06:43:50.000Z</time>
      </trkpt>
      <trkpt lat="45.75747" lon="1.2093">
        <ele>339.7</ele>
        <time>2025-06-22T06:44:09.000Z</time>
      </trkpt>
      <trkpt lat="45.75724" lon="1.20937">
        <ele>340.9</ele>
        <time>2025-06-22T06:44:16.000Z</time>
      </trkpt>
      <trkpt lat="45.7569" lon="1.20946">
        <ele>342</ele>
      </trkpt>
      <trkpt lat="45.75661" lon="1.20951">
        <ele>342</ele>
        <time>2025-06-22T06:44:38.000Z</time>
      </trkpt>
      <trkpt lat="45.75585" lon="1.20959">
        <ele>343.5</ele>
        <time>2025-06-22T06:45:00.000Z</time>
      </trkpt>
      <trkpt lat="45.75551" lon="1.20962">
        <ele>345</ele>
        <time>2025-06-22T06:45:11.000Z</time>
      </trkpt>
      <trkpt lat="45.75467" lon="1.2099">
        <ele>350.1</ele>
        <time>2025-06-22T06:45:45.000Z</time>
      </trkpt>
      <trkpt lat="45.75432" lon="1.20998">
        <ele>352</ele>
        <time>2025-06-22T06:45:57.000Z</time>
      </trkpt>
      <trkpt lat="45.7541" lon="1.21">
        <ele>352</ele>
        <time>2025-06-22T06:46:10.000Z</time>
      </trkpt>
      <trkpt lat="45.75391" lon="1.21">
        <ele>352</ele>
        <time>2025-06-22T06:46:17.000Z</time>
      </trkpt>
      <trkpt lat="45.75351" lon="1.20992">
        <ele>352.8</ele>
        <time>2025-06-22T06:46:19.000Z</time>
      </trkpt>
      <trkpt lat="45.75315" lon="1.20979">
        <ele>353.6</ele>
        <time>2025-06-22T06:46:31.000Z</time>
      </trkpt>
      <trkpt lat="45.75299" lon="1.20968">
        <ele>353.6</ele>
        <time>2025-06-22T06:46:37.000Z</time>
      </trkpt>
      <trkpt lat="45.75286" lon="1.20951">
        <ele>353.4</ele>
        <time>2025-06-22T06:46:42.000Z</time>
      </trkpt>
      <trkpt lat="45.75228" lon="1.20858">
        <ele>351.1</ele>
        <time>2025-06-22T06:46:54.000Z</time>
      </trkpt>
      <trkpt lat="45.75134" lon="1.20771">
        <ele>347.6</ele>
        <time>2025-06-22T06:47:17.000Z</time>
      </trkpt>
      <trkpt lat="45.75056" lon="1.20827">
        <ele>346.6</ele>
        <time>2025-06-22T06:47:33.000Z</time>
      </trkpt>
      <trkpt lat="45.75027" lon="1.2082">
        <ele>346</ele>
        <time>2025-06-22T06:47:37.000Z</time>
      </trkpt>
      <trkpt lat="45.7501" lon="1.20797">
        <ele>344</ele>
        <time>2025-06-22T06:47:44.000Z</time>
      </trkpt>
      <trkpt lat="45.74851" lon="1.20745">
        <ele>346.5</ele>
        <time>2025-06-22T06:48:19.000Z</time>
      </trkpt>
      <trkpt lat="45.748" lon="1.20689">
        <ele>346.9</ele>
        <time>2025-06-22T06:48:38.000Z</time>
      </trkpt>
      <trkpt lat="45.7479" lon="1.20695">
        <ele>347.6</ele>
        <time>2025-06-22T06:48:40.000Z</time>
      </trkpt>
      <trkpt lat="45.7478" lon="1.20695">
        <ele>347.9</ele>
        <time>2025-06-22T06:48:41.000Z</time>
      </trkpt>
      <trkpt lat="45.74763" lon="1.20686">
        <ele>348.6</ele>
        <time>2025-06-22T06:48:54.000Z</time>
      </trkpt>
      <trkpt lat="45.74716" lon="1.20666">
        <ele>349.9</ele>
        <time>2025-06-22T06:49:00.000Z</time>
      </trkpt>
      <trkpt lat="45.74699" lon="1.20658">
        <ele>355</ele>
        <time>2025-06-22T06:49:07.000Z</time>
      </trkpt>
      <trkpt lat="45.7468" lon="1.20648">
        <ele>348.6</ele>
        <time>2025-06-22T06:49:09.000Z</time>
      </trkpt>
      <trkpt lat="45.74667" lon="1.20625">
        <ele>347</ele>
        <time>2025-06-22T06:49:14.000Z</time>
      </trkpt>
      <trkpt lat="45.74586" lon="1.20595">
        <ele>345.8</ele>
        <time>2025-06-22T06:49:31.000Z</time>
      </trkpt>
      <trkpt lat="45.7455" lon="1.20568">
        <ele>343.3</ele>
        <time>2025-06-22T06:49:39.000Z</time>
      </trkpt>
      <trkpt lat="45.74511" lon="1.20569">
        <ele>341.7</ele>
        <time>2025-06-22T06:49:45.000Z</time>
      </trkpt>
      <trkpt lat="45.74462" lon="1.20558">
        <ele>337.8</ele>
        <time>2025-06-22T06:49:52.000Z</time>
      </trkpt>
      <trkpt lat="45.74448" lon="1.20548">
        <ele>336.6</ele>
        <time>2025-06-22T06:49:55.000Z</time>
      </trkpt>
      <trkpt lat="45.74416" lon="1.20495">
        <ele>337.2</ele>
        <time>2025-06-22T06:50:05.000Z</time>
      </trkpt>
      <trkpt lat="45.74487" lon="1.204">
        <ele>330.9</ele>
        <time>2025-06-22T06:50:34.000Z</time>
      </trkpt>
      <trkpt lat="45.74482" lon="1.20359">
        <ele>332.3</ele>
        <time>2025-06-22T06:50:48.000Z</time>
      </trkpt>
      <trkpt lat="45.7449" lon="1.20332">
        <ele>330.1</ele>
        <time>2025-06-22T06:50:58.000Z</time>
      </trkpt>
      <trkpt lat="45.745" lon="1.20328">
        <ele>336.60000610352</ele>
        <time>2025-06-22T06:51:03.000Z</time>
      </trkpt>
      <trkpt lat="45.74508" lon="1.20325">
        <ele>326.5</ele>
        <time>2025-06-22T06:51:07.000Z</time>
      </trkpt>
      <trkpt lat="45.74516" lon="1.20311">
        <ele>325.2</ele>
        <time>2025-06-22T06:51:09.000Z</time>
      </trkpt>
      <trkpt lat="45.7454" lon="1.20313">
        <ele>320.8</ele>
        <time>2025-06-22T06:51:23.000Z</time>
      </trkpt>
      <trkpt lat="45.74553" lon="1.20306">
        <ele>318.4</ele>
        <time>2025-06-22T06:51:24.000Z</time>
      </trkpt>
      <trkpt lat="45.74557" lon="1.20289">
        <ele>317.8</ele>
        <time>2025-06-22T06:51:29.000Z</time>
      </trkpt>
      <trkpt lat="45.74578" lon="1.20292">
        <ele>314</ele>
        <time>2025-06-22T06:51:40.000Z</time>
      </trkpt>
      <trkpt lat="45.74597" lon="1.20271">
        <ele>309.8</ele>
        <time>2025-06-22T06:52:08.000Z</time>
      </trkpt>
      <trkpt lat="45.74615" lon="1.20243">
        <ele>307</ele>
        <time>2025-06-22T06:52:51.000Z</time>
      </trkpt>
      <trkpt lat="45.74606" lon="1.20236">
        <ele>307.5</ele>
        <time>2025-06-22T06:53:00.000Z</time>
      </trkpt>
      <trkpt lat="45.7461" lon="1.20225">
        <ele>307</ele>
        <time>2025-06-22T06:53:01.000Z</time>
      </trkpt>
      <trkpt lat="45.74608" lon="1.20218">
        <ele>306.60000610352</ele>
        <time>2025-06-22T06:53:04.000Z</time>
      </trkpt>
      <trkpt lat="45.74606" lon="1.20204">
        <ele>306.60000610352</ele>
        <time>2025-06-22T06:53:09.000Z</time>
      </trkpt>
      <trkpt lat="45.74607" lon="1.20201">
        <ele>306.39999389648</ele>
        <time>2025-06-22T06:53:10.000Z</time>
      </trkpt>
      <trkpt lat="45.74607" lon="1.20197">
        <ele>306.39999389648</ele>
        <time>2025-06-22T06:53:12.000Z</time>
      </trkpt>
      <trkpt lat="45.74609" lon="1.20193">
        <ele>306.39999389648</ele>
        <time>2025-06-22T06:53:14.000Z</time>
      </trkpt>
      <trkpt lat="45.74609" lon="1.20184">
        <ele>306.20001220703</ele>
        <time>2025-06-22T06:53:17.000Z</time>
      </trkpt>
      <trkpt lat="45.74616" lon="1.20187">
        <ele>306.20001220703</ele>
        <time>2025-06-22T06:53:19.000Z</time>
      </trkpt>
      <trkpt lat="45.74622" lon="1.20188">
        <ele>305.60000610352</ele>
        <time>2025-06-22T06:53:23.000Z</time>
      </trkpt>
      <trkpt lat="45.74624" lon="1.2019">
        <ele>304.79998779297</ele>
        <time>2025-06-22T06:53:27.000Z</time>
      </trkpt>
      <trkpt lat="45.74628" lon="1.20191">
        <ele>304.79998779297</ele>
        <time>2025-06-22T06:53:28.000Z</time>
      </trkpt>
      <trkpt lat="45.74633" lon="1.20191">
        <ele>304.39999389648</ele>
        <time>2025-06-22T06:53:31.000Z</time>
      </trkpt>
      <trkpt lat="45.74633" lon="1.2019">
        <ele>304.39999389648</ele>
        <time>2025-06-22T06:53:32.000Z</time>
      </trkpt>
      <trkpt lat="45.74636" lon="1.20192">
        <ele>304.20001220703</ele>
        <time>2025-06-22T06:53:34.000Z</time>
      </trkpt>
      <trkpt lat="45.74635" lon="1.20192">
        <ele>303.79998779297</ele>
        <time>2025-06-22T06:53:35.000Z</time>
      </trkpt>
      <trkpt lat="45.74639" lon="1.20192">
        <ele>303</ele>
        <time>2025-06-22T06:53:37.000Z</time>
      </trkpt>
      <trkpt lat="45.74644" lon="1.20194">
        <ele>302.20001220703</ele>
        <time>2025-06-22T06:53:38.000Z</time>
      </trkpt>
      <trkpt lat="45.74651" lon="1.20202">
        <ele>300.60000610352</ele>
        <time>2025-06-22T06:53:43.000Z</time>
      </trkpt>
      <trkpt lat="45.74655" lon="1.20209">
        <ele>300.20001220703</ele>
        <time>2025-06-22T06:53:49.000Z</time>
      </trkpt>
      <trkpt lat="45.74655" lon="1.20208">
        <ele>300</ele>
        <time>2025-06-22T06:53:50.000Z</time>
      </trkpt>
      <trkpt lat="45.74658" lon="1.20208">
        <ele>299.60000610352</ele>
        <time>2025-06-22T06:53:53.000Z</time>
      </trkpt>
      <trkpt lat="45.7466" lon="1.20205">
        <ele>299.20001220703</ele>
        <time>2025-06-22T06:53:54.000Z</time>
      </trkpt>
      <trkpt lat="45.74659" lon="1.20205">
        <ele>298.79998779297</ele>
        <time>2025-06-22T06:53:56.000Z</time>
      </trkpt>
      <trkpt lat="45.74662" lon="1.20203">
        <ele>298.20001220703</ele>
        <time>2025-06-22T06:54:00.000Z</time>
      </trkpt>
      <trkpt lat="45.74662" lon="1.20194">
        <ele>297.60000610352</ele>
        <time>2025-06-22T06:54:03.000Z</time>
      </trkpt>
      <trkpt lat="45.74668" lon="1.20186">
        <ele>297.20001220703</ele>
        <time>2025-06-22T06:54:05.000Z</time>
      </trkpt>
      <trkpt lat="45.74671" lon="1.20175">
        <ele>296.20001220703</ele>
        <time>2025-06-22T06:54:08.000Z</time>
      </trkpt>
      <trkpt lat="45.74674" lon="1.20172">
        <ele>295.79998779297</ele>
        <time>2025-06-22T06:54:09.000Z</time>
      </trkpt>
      <trkpt lat="45.74678" lon="1.20161">
        <ele>295.20001220703</ele>
        <time>2025-06-22T06:54:12.000Z</time>
      </trkpt>
      <trkpt lat="45.74684" lon="1.2015">
        <ele>294.60000610352</ele>
        <time>2025-06-22T06:54:15.000Z</time>
      </trkpt>
      <trkpt lat="45.74689" lon="1.20146">
        <ele>293.79998779297</ele>
        <time>2025-06-22T06:54:20.000Z</time>
      </trkpt>
      <trkpt lat="45.74689" lon="1.20143">
        <ele>293.60000610352</ele>
        <time>2025-06-22T06:54:21.000Z</time>
      </trkpt>
      <trkpt lat="45.74688" lon="1.20142">
        <ele>293.39999389648</ele>
        <time>2025-06-22T06:54:23.000Z</time>
      </trkpt>
      <trkpt lat="45.74691" lon="1.20138">
        <ele>293</ele>
        <time>2025-06-22T06:54:27.000Z</time>
      </trkpt>
      <trkpt lat="45.7469" lon="1.20138">
        <ele>293</ele>
        <time>2025-06-22T06:54:28.000Z</time>
      </trkpt>
      <trkpt lat="45.74691" lon="1.20135">
        <ele>293.60000610352</ele>
        <time>2025-06-22T06:54:31.000Z</time>
      </trkpt>
      <trkpt lat="45.7469" lon="1.20134">
        <ele>294.60000610352</ele>
        <time>2025-06-22T06:54:35.000Z</time>
      </trkpt>
      <trkpt lat="45.74703" lon="1.20114">
        <ele>295</ele>
        <time>2025-06-22T06:54:40.000Z</time>
      </trkpt>
      <trkpt lat="45.7471" lon="1.20108">
        <ele>295</ele>
        <time>2025-06-22T06:54:44.000Z</time>
      </trkpt>
      <trkpt lat="45.74712" lon="1.20103">
        <ele>295</ele>
        <time>2025-06-22T06:54:45.000Z</time>
      </trkpt>
      <trkpt lat="45.7472" lon="1.20094">
        <ele>295.39999389648</ele>
        <time>2025-06-22T06:54:48.000Z</time>
      </trkpt>
      <trkpt lat="45.74726" lon="1.20084">
        <ele>295.79998779297</ele>
        <time>2025-06-22T06:54:51.000Z</time>
      </trkpt>
      <trkpt lat="45.74739" lon="1.20068">
        <ele>297.79998779297</ele>
        <time>2025-06-22T06:54:59.000Z</time>
      </trkpt>
      <trkpt lat="45.74741" lon="1.20067">
        <ele>298.20001220703</ele>
        <time>2025-06-22T06:55:00.000Z</time>
      </trkpt>
      <trkpt lat="45.74743" lon="1.20062">
        <ele>298.60000610352</ele>
        <time>2025-06-22T06:55:02.000Z</time>
      </trkpt>
      <trkpt lat="45.74746" lon="1.20059">
        <ele>298.79998779297</ele>
        <time>2025-06-22T06:55:03.000Z</time>
      </trkpt>
      <trkpt lat="45.74751" lon="1.20058">
        <ele>299.60000610352</ele>
        <time>2025-06-22T06:55:05.000Z</time>
      </trkpt>
      <trkpt lat="45.74753" lon="1.20056">
        <ele>299.79998779297</ele>
        <time>2025-06-22T06:55:06.000Z</time>
      </trkpt>
      <trkpt lat="45.74753" lon="1.20053">
        <ele>300</ele>
        <time>2025-06-22T06:55:07.000Z</time>
      </trkpt>
      <trkpt lat="45.74755" lon="1.20049">
        <ele>300.79998779297</ele>
        <time>2025-06-22T06:55:11.000Z</time>
      </trkpt>
      <trkpt lat="45.74762" lon="1.20042">
        <ele>301.60000610352</ele>
        <time>2025-06-22T06:55:15.000Z</time>
      </trkpt>
      <trkpt lat="45.74766" lon="1.20034">
        <ele>301.79998779297</ele>
        <time>2025-06-22T06:55:17.000Z</time>
      </trkpt>
      <trkpt lat="45.74767" lon="1.2003">
        <ele>301.79998779297</ele>
        <time>2025-06-22T06:55:18.000Z</time>
      </trkpt>
      <trkpt lat="45.74769" lon="1.20027">
        <ele>301.79998779297</ele>
        <time>2025-06-22T06:55:19.000Z</time>
      </trkpt>
      <trkpt lat="45.74773" lon="1.20023">
        <ele>291.9</ele>
        <time>2025-06-22T06:55:23.000Z</time>
      </trkpt>
      <trkpt lat="45.74774" lon="1.20008">
        <ele>290.7</ele>
        <time>2025-06-22T06:55:26.000Z</time>
      </trkpt>
      <trkpt lat="45.7477" lon="1.19989">
        <ele>289.7</ele>
        <time>2025-06-22T06:55:28.000Z</time>
      </trkpt>
      <trkpt lat="45.74772" lon="1.19986">
        <ele>296.60000610352</ele>
        <time>2025-06-22T06:55:31.000Z</time>
      </trkpt>
      <trkpt lat="45.74773" lon="1.19987">
        <ele>296.20001220703</ele>
        <time>2025-06-22T06:55:32.000Z</time>
      </trkpt>
      <trkpt lat="45.74776" lon="1.19987">
        <ele>295.39999389648</ele>
        <time>2025-06-22T06:55:34.000Z</time>
      </trkpt>
      <trkpt lat="45.74785" lon="1.20006">
        <ele>292.60000610352</ele>
        <time>2025-06-22T06:55:42.000Z</time>
      </trkpt>
      <trkpt lat="45.74781" lon="1.20004">
        <ele>289.39999389648</ele>
        <time>2025-06-22T06:56:01.000Z</time>
      </trkpt>
      <trkpt lat="45.74777" lon="1.2">
        <ele>289.20001220703</ele>
        <time>2025-06-22T06:56:04.000Z</time>
      </trkpt>
      <trkpt lat="45.74776" lon="1.1999">
        <ele>288.39999389648</ele>
        <time>2025-06-22T06:56:08.000Z</time>
      </trkpt>
      <trkpt lat="45.74773" lon="1.19984">
        <ele>288</ele>
        <time>2025-06-22T06:56:10.000Z</time>
      </trkpt>
      <trkpt lat="45.74771" lon="1.19974">
        <ele>287.20001220703</ele>
        <time>2025-06-22T06:56:14.000Z</time>
      </trkpt>
      <trkpt lat="45.74769" lon="1.1997">
        <ele>287.20001220703</ele>
        <time>2025-06-22T06:56:15.000Z</time>
      </trkpt>
      <trkpt lat="45.74769" lon="1.19968">
        <ele>287.20001220703</ele>
        <time>2025-06-22T06:56:16.000Z</time>
      </trkpt>
      <trkpt lat="45.74765" lon="1.19959">
        <ele>287.20001220703</ele>
        <time>2025-06-22T06:56:21.000Z</time>
      </trkpt>
      <trkpt lat="45.74758" lon="1.19935">
        <ele>287.39999389648</ele>
        <time>2025-06-22T06:56:29.000Z</time>
      </trkpt>
      <trkpt lat="45.74754" lon="1.19927">
        <ele>287.20001220703</ele>
        <time>2025-06-22T06:56:31.000Z</time>
      </trkpt>
      <trkpt lat="45.74754" lon="1.19925">
        <ele>287</ele>
        <time>2025-06-22T06:56:32.000Z</time>
      </trkpt>
      <trkpt lat="45.74753" lon="1.19923">
        <ele>287</ele>
        <time>2025-06-22T06:56:33.000Z</time>
      </trkpt>
      <trkpt lat="45.74755" lon="1.19919">
        <ele>286.60000610352</ele>
        <time>2025-06-22T06:56:35.000Z</time>
      </trkpt>
      <trkpt lat="45.74755" lon="1.19917">
        <ele>286.60000610352</ele>
        <time>2025-06-22T06:56:36.000Z</time>
      </trkpt>
      <trkpt lat="45.74762" lon="1.19915">
        <ele>285.39999389648</ele>
        <time>2025-06-22T06:56:39.000Z</time>
      </trkpt>
      <trkpt lat="45.74766" lon="1.19918">
        <ele>284.60000610352</ele>
        <time>2025-06-22T06:56:41.000Z</time>
      </trkpt>
      <trkpt lat="45.74769" lon="1.19919">
        <ele>283.60000610352</ele>
        <time>2025-06-22T06:56:44.000Z</time>
      </trkpt>
      <trkpt lat="45.74768" lon="1.19919">
        <ele>283.60000610352</ele>
        <time>2025-06-22T06:56:45.000Z</time>
      </trkpt>
      <trkpt lat="45.74771" lon="1.19927">
        <ele>282.79998779297</ele>
        <time>2025-06-22T06:56:48.000Z</time>
      </trkpt>
      <trkpt lat="45.74775" lon="1.19931">
        <ele>282.60000610352</ele>
        <time>2025-06-22T06:56:49.000Z</time>
      </trkpt>
      <trkpt lat="45.74778" lon="1.19936">
        <ele>283</ele>
        <time>2025-06-22T06:56:51.000Z</time>
      </trkpt>
      <trkpt lat="45.7478" lon="1.19938">
        <ele>283</ele>
        <time>2025-06-22T06:56:52.000Z</time>
      </trkpt>
      <trkpt lat="45.74781" lon="1.19941">
        <ele>283</ele>
        <time>2025-06-22T06:56:54.000Z</time>
      </trkpt>
      <trkpt lat="45.74796" lon="1.19965">
        <ele>283</ele>
        <time>2025-06-22T06:57:00.000Z</time>
      </trkpt>
      <trkpt lat="45.74797" lon="1.19968">
        <ele>282.60000610352</ele>
        <time>2025-06-22T06:57:01.000Z</time>
      </trkpt>
      <trkpt lat="45.74796" lon="1.1997">
        <ele>282.39999389648</ele>
        <time>2025-06-22T06:57:02.000Z</time>
      </trkpt>
      <trkpt lat="45.74796" lon="1.19973">
        <ele>282.20001220703</ele>
        <time>2025-06-22T06:57:03.000Z</time>
      </trkpt>
      <trkpt lat="45.74798" lon="1.1998">
        <ele>282</ele>
        <time>2025-06-22T06:57:05.000Z</time>
      </trkpt>
      <trkpt lat="45.74803" lon="1.19987">
        <ele>281.79998779297</ele>
        <time>2025-06-22T06:57:07.000Z</time>
      </trkpt>
      <trkpt lat="45.74806" lon="1.1999">
        <ele>281.79998779297</ele>
        <time>2025-06-22T06:57:08.000Z</time>
      </trkpt>
      <trkpt lat="45.74808" lon="1.19999">
        <ele>281.79998779297</ele>
        <time>2025-06-22T06:57:11.000Z</time>
      </trkpt>
      <trkpt lat="45.74814" lon="1.20007">
        <ele>281</ele>
        <time>2025-06-22T06:57:17.000Z</time>
      </trkpt>
      <trkpt lat="45.74816" lon="1.20007">
        <ele>280.79998779297</ele>
        <time>2025-06-22T06:57:18.000Z</time>
      </trkpt>
      <trkpt lat="45.74817" lon="1.20005">
        <ele>280.60000610352</ele>
        <time>2025-06-22T06:57:20.000Z</time>
      </trkpt>
      <trkpt lat="45.74816" lon="1.20002">
        <ele>279.79998779297</ele>
        <time>2025-06-22T06:57:23.000Z</time>
      </trkpt>
      <trkpt lat="45.74816" lon="1.19993">
        <ele>278.39999389648</ele>
        <time>2025-06-22T06:57:26.000Z</time>
      </trkpt>
      <trkpt lat="45.74817" lon="1.19987">
        <ele>276.79998779297</ele>
        <time>2025-06-22T06:57:34.000Z</time>
      </trkpt>
      <trkpt lat="45.74815" lon="1.19984">
        <ele>276.60000610352</ele>
        <time>2025-06-22T06:57:35.000Z</time>
      </trkpt>
      <trkpt lat="45.74805" lon="1.19974">
        <ele>276.39999389648</ele>
        <time>2025-06-22T06:57:38.000Z</time>
      </trkpt>
      <trkpt lat="45.74803" lon="1.19967">
        <ele>276.20001220703</ele>
        <time>2025-06-22T06:57:40.000Z</time>
      </trkpt>
      <trkpt lat="45.74804" lon="1.19964">
        <ele>276.20001220703</ele>
        <time>2025-06-22T06:57:41.000Z</time>
      </trkpt>
      <trkpt lat="45.74803" lon="1.19961">
        <ele>275.60000610352</ele>
        <time>2025-06-22T06:57:45.000Z</time>
      </trkpt>
      <trkpt lat="45.74804" lon="1.19961">
        <ele>275.20001220703</ele>
        <time>2025-06-22T06:57:46.000Z</time>
      </trkpt>
      <trkpt lat="45.74806" lon="1.19963">
        <ele>274.79998779297</ele>
        <time>2025-06-22T06:57:48.000Z</time>
      </trkpt>
      <trkpt lat="45.74809" lon="1.19963">
        <ele>274.39999389648</ele>
        <time>2025-06-22T06:57:50.000Z</time>
      </trkpt>
      <trkpt lat="45.74813" lon="1.19965">
        <ele>274</ele>
        <time>2025-06-22T06:57:52.000Z</time>
      </trkpt>
      <trkpt lat="45.74821" lon="1.19965">
        <ele>272.60000610352</ele>
        <time>2025-06-22T06:57:56.000Z</time>
      </trkpt>
      <trkpt lat="45.74826" lon="1.19957">
        <ele>271.60000610352</ele>
        <time>2025-06-22T06:58:00.000Z</time>
      </trkpt>
      <trkpt lat="45.74827" lon="1.19944">
        <ele>270.60000610352</ele>
        <time>2025-06-22T06:58:03.000Z</time>
      </trkpt>
      <trkpt lat="45.74825" lon="1.19937">
        <ele>269.20001220703</ele>
        <time>2025-06-22T06:58:06.000Z</time>
      </trkpt>
      <trkpt lat="45.74817" lon="1.19918">
        <ele>268</ele>
        <time>2025-06-22T06:58:09.000Z</time>
      </trkpt>
      <trkpt lat="45.74816" lon="1.19917">
        <ele>267.60000610352</ele>
        <time>2025-06-22T06:58:11.000Z</time>
      </trkpt>
      <trkpt lat="45.74814" lon="1.19907">
        <ele>267.60000610352</ele>
        <time>2025-06-22T06:58:13.000Z</time>
      </trkpt>
      <trkpt lat="45.74813" lon="1.19905">
        <ele>267.60000610352</ele>
        <time>2025-06-22T06:58:14.000Z</time>
      </trkpt>
      <trkpt lat="45.74817" lon="1.19904">
        <ele>267.60000610352</ele>
        <time>2025-06-22T06:58:17.000Z</time>
      </trkpt>
      <trkpt lat="45.7482" lon="1.19905">
        <ele>267.20001220703</ele>
        <time>2025-06-22T06:58:18.000Z</time>
      </trkpt>
      <trkpt lat="45.74824" lon="1.19909">
        <ele>267</ele>
        <time>2025-06-22T06:58:20.000Z</time>
      </trkpt>
      <trkpt lat="45.74826" lon="1.1991">
        <ele>266.60000610352</ele>
        <time>2025-06-22T06:58:21.000Z</time>
      </trkpt>
      <trkpt lat="45.7483" lon="1.19915">
        <ele>266</ele>
        <time>2025-06-22T06:58:23.000Z</time>
      </trkpt>
      <trkpt lat="45.74831" lon="1.19918">
        <ele>265.79998779297</ele>
        <time>2025-06-22T06:58:24.000Z</time>
      </trkpt>
      <trkpt lat="45.74833" lon="1.1992">
        <ele>262.39999389648</ele>
        <time>2025-06-22T06:58:32.000Z</time>
      </trkpt>
      <trkpt lat="45.74836" lon="1.1992">
        <ele>262.20001220703</ele>
        <time>2025-06-22T06:58:33.000Z</time>
      </trkpt>
      <trkpt lat="45.74838" lon="1.19919">
        <ele>261.79998779297</ele>
        <time>2025-06-22T06:58:34.000Z</time>
      </trkpt>
      <trkpt lat="45.74837" lon="1.19918">
        <ele>261.79998779297</ele>
        <time>2025-06-22T06:58:35.000Z</time>
      </trkpt>
      <trkpt lat="45.74841" lon="1.19917">
        <ele>261.20001220703</ele>
        <time>2025-06-22T06:58:37.000Z</time>
      </trkpt>
      <trkpt lat="45.74842" lon="1.19905">
        <ele>260</ele>
        <time>2025-06-22T06:58:46.000Z</time>
      </trkpt>
      <trkpt lat="45.74843" lon="1.19906">
        <ele>259.39999389648</ele>
        <time>2025-06-22T06:58:48.000Z</time>
      </trkpt>
      <trkpt lat="45.74846" lon="1.19914">
        <ele>258.39999389648</ele>
        <time>2025-06-22T06:58:53.000Z</time>
      </trkpt>
      <trkpt lat="45.74847" lon="1.19915">
        <ele>258.20001220703</ele>
        <time>2025-06-22T06:58:54.000Z</time>
      </trkpt>
      <trkpt lat="45.74847" lon="1.19917">
        <ele>257.60000610352</ele>
        <time>2025-06-22T06:59:24.000Z</time>
      </trkpt>
      <trkpt lat="45.7485" lon="1.19919">
        <ele>256</ele>
        <time>2025-06-22T06:59:34.000Z</time>
      </trkpt>
      <trkpt lat="45.74851" lon="1.19921">
        <ele>255.19999694824</ele>
        <time>2025-06-22T06:59:40.000Z</time>
      </trkpt>
      <trkpt lat="45.74854" lon="1.1992">
        <ele>255.19999694824</ele>
        <time>2025-06-22T06:59:42.000Z</time>
      </trkpt>
      <trkpt lat="45.74858" lon="1.1992">
        <ele>254.19999694824</ele>
        <time>2025-06-22T06:59:46.000Z</time>
      </trkpt>
      <trkpt lat="45.7486" lon="1.19921">
        <ele>253</ele>
        <time>2025-06-22T06:59:49.000Z</time>
      </trkpt>
      <trkpt lat="45.7486" lon="1.19922">
        <ele>252.80000305176</ele>
        <time>2025-06-22T06:59:52.000Z</time>
      </trkpt>
      <trkpt lat="45.74862" lon="1.19921">
        <ele>252.60000610352</ele>
        <time>2025-06-22T07:00:00.000Z</time>
      </trkpt>
      <trkpt lat="45.74861" lon="1.19919">
        <ele>252.60000610352</ele>
        <time>2025-06-22T07:00:01.000Z</time>
      </trkpt>
      <trkpt lat="45.74861" lon="1.19916">
        <ele>252.60000610352</ele>
        <time>2025-06-22T07:00:02.000Z</time>
      </trkpt>
      <trkpt lat="45.7486" lon="1.19914">
        <ele>252.60000610352</ele>
        <time>2025-06-22T07:00:03.000Z</time>
      </trkpt>
      <trkpt lat="45.7486" lon="1.19911">
        <ele>252.60000610352</ele>
        <time>2025-06-22T07:00:11.000Z</time>
      </trkpt>
      <trkpt lat="45.74855" lon="1.19907">
        <ele>253</ele>
        <time>2025-06-22T07:00:15.000Z</time>
      </trkpt>
      <trkpt lat="45.74855" lon="1.19903">
        <ele>253.19999694824</ele>
        <time>2025-06-22T07:00:17.000Z</time>
      </trkpt>
      <trkpt lat="45.74856" lon="1.19901">
        <ele>253.39999389648</ele>
        <time>2025-06-22T07:00:18.000Z</time>
      </trkpt>
      <trkpt lat="45.74856" lon="1.19898">
        <ele>253.39999389648</ele>
        <time>2025-06-22T07:00:21.000Z</time>
      </trkpt>
      <trkpt lat="45.74857" lon="1.19897">
        <ele>253.39999389648</ele>
        <time>2025-06-22T07:00:22.000Z</time>
      </trkpt>
      <trkpt lat="45.74857" lon="1.19895">
        <ele>253.39999389648</ele>
        <time>2025-06-22T07:00:23.000Z</time>
      </trkpt>
      <trkpt lat="45.74858" lon="1.19894">
        <ele>253.39999389648</ele>
        <time>2025-06-22T07:00:25.000Z</time>
      </trkpt>
      <trkpt lat="45.74858" lon="1.19889">
        <ele>253.19999694824</ele>
        <time>2025-06-22T07:00:28.000Z</time>
      </trkpt>
      <trkpt lat="45.74857" lon="1.19889">
        <ele>253.39999389648</ele>
        <time>2025-06-22T07:00:32.000Z</time>
      </trkpt>
      <trkpt lat="45.74859" lon="1.19883">
        <ele>253.19999694824</ele>
        <time>2025-06-22T07:00:35.000Z</time>
      </trkpt>
      <trkpt lat="45.74859" lon="1.19876">
        <ele>253.19999694824</ele>
        <time>2025-06-22T07:00:40.000Z</time>
      </trkpt>
      <trkpt lat="45.74857" lon="1.19869">
        <ele>253.39999389648</ele>
        <time>2025-06-22T07:00:43.000Z</time>
      </trkpt>
      <trkpt lat="45.74856" lon="1.19854">
        <ele>253.60000610352</ele>
        <time>2025-06-22T07:00:48.000Z</time>
      </trkpt>
      <trkpt lat="45.74853" lon="1.19848">
        <ele>253.80000305176</ele>
        <time>2025-06-22T07:00:50.000Z</time>
      </trkpt>
      <trkpt lat="45.74847" lon="1.1984">
        <ele>253.80000305176</ele>
        <time>2025-06-22T07:00:53.000Z</time>
      </trkpt>
      <trkpt lat="45.74845" lon="1.19839">
        <ele>253.80000305176</ele>
        <time>2025-06-22T07:00:55.000Z</time>
      </trkpt>
      <trkpt lat="45.74844" lon="1.19837">
        <ele>253.80000305176</ele>
        <time>2025-06-22T07:00:56.000Z</time>
      </trkpt>
      <trkpt lat="45.74839" lon="1.19835">
        <ele>254</ele>
        <time>2025-06-22T07:00:59.000Z</time>
      </trkpt>
      <trkpt lat="45.74831" lon="1.1983">
        <ele>254.19999694824</ele>
        <time>2025-06-22T07:01:03.000Z</time>
      </trkpt>
      <trkpt lat="45.74824" lon="1.19824">
        <ele>254.19999694824</ele>
        <time>2025-06-22T07:01:06.000Z</time>
      </trkpt>
      <trkpt lat="45.74819" lon="1.19822">
        <ele>254.19999694824</ele>
        <time>2025-06-22T07:01:10.000Z</time>
      </trkpt>
      <trkpt lat="45.74818" lon="1.1982">
        <ele>254.19999694824</ele>
        <time>2025-06-22T07:01:13.000Z</time>
      </trkpt>
      <trkpt lat="45.74816" lon="1.19819">
        <ele>254.39999389648</ele>
        <time>2025-06-22T07:01:21.000Z</time>
      </trkpt>
      <trkpt lat="45.74813" lon="1.19813">
        <ele>254.39999389648</ele>
        <time>2025-06-22T07:01:26.000Z</time>
      </trkpt>
      <trkpt lat="45.7481" lon="1.1981">
        <ele>254.39999389648</ele>
        <time>2025-06-22T07:01:27.000Z</time>
      </trkpt>
      <trkpt lat="45.74808" lon="1.19804">
        <ele>254.39999389648</ele>
        <time>2025-06-22T07:01:30.000Z</time>
      </trkpt>
      <trkpt lat="45.74802" lon="1.19797">
        <ele>254.39999389648</ele>
        <time>2025-06-22T07:01:34.000Z</time>
      </trkpt>
      <trkpt lat="45.74796" lon="1.19793">
        <ele>254.60000610352</ele>
        <time>2025-06-22T07:01:36.000Z</time>
      </trkpt>
      <trkpt lat="45.74793" lon="1.1979">
        <ele>254.60000610352</ele>
        <time>2025-06-22T07:01:37.000Z</time>
      </trkpt>
      <trkpt lat="45.74789" lon="1.19788">
        <ele>254.80000305176</ele>
        <time>2025-06-22T07:01:39.000Z</time>
      </trkpt>
      <trkpt lat="45.74784" lon="1.19787">
        <ele>254.80000305176</ele>
        <time>2025-06-22T07:01:40.000Z</time>
      </trkpt>
      <trkpt lat="45.7478" lon="1.19785">
        <ele>254.80000305176</ele>
        <time>2025-06-22T07:01:41.000Z</time>
      </trkpt>
      <trkpt lat="45.74774" lon="1.1978">
        <ele>255</ele>
        <time>2025-06-22T07:01:45.000Z</time>
      </trkpt>
      <trkpt lat="45.74767" lon="1.19777">
        <ele>255</ele>
        <time>2025-06-22T07:01:49.000Z</time>
      </trkpt>
      <trkpt lat="45.74766" lon="1.19775">
        <ele>254.80000305176</ele>
        <time>2025-06-22T07:01:50.000Z</time>
      </trkpt>
      <trkpt lat="45.74766" lon="1.19769">
        <ele>255</ele>
        <time>2025-06-22T07:01:53.000Z</time>
      </trkpt>
      <trkpt lat="45.74761" lon="1.19758">
        <ele>255</ele>
        <time>2025-06-22T07:02:00.000Z</time>
      </trkpt>
      <trkpt lat="45.74749" lon="1.19741">
        <ele>255</ele>
        <time>2025-06-22T07:02:06.000Z</time>
      </trkpt>
      <trkpt lat="45.74741" lon="1.19735">
        <ele>255.19999694824</ele>
        <time>2025-06-22T07:02:09.000Z</time>
      </trkpt>
      <trkpt lat="45.7474" lon="1.19733">
        <ele>255.19999694824</ele>
        <time>2025-06-22T07:02:10.000Z</time>
      </trkpt>
      <trkpt lat="45.74719" lon="1.19728">
        <ele>255.39999389648</ele>
        <time>2025-06-22T07:02:18.000Z</time>
      </trkpt>
      <trkpt lat="45.74716" lon="1.19728">
        <ele>255.39999389648</ele>
        <time>2025-06-22T07:02:19.000Z</time>
      </trkpt>
      <trkpt lat="45.74714" lon="1.1973">
        <ele>255.39999389648</ele>
        <time>2025-06-22T07:02:20.000Z</time>
      </trkpt>
      <trkpt lat="45.74708" lon="1.19731">
        <ele>255.60000610352</ele>
        <time>2025-06-22T07:02:23.000Z</time>
      </trkpt>
      <trkpt lat="45.74705" lon="1.19734">
        <ele>255.60000610352</ele>
        <time>2025-06-22T07:02:25.000Z</time>
      </trkpt>
      <trkpt lat="45.74704" lon="1.19734">
        <ele>255.60000610352</ele>
        <time>2025-06-22T07:02:27.000Z</time>
      </trkpt>
      <trkpt lat="45.74704" lon="1.19735">
        <ele>255.60000610352</ele>
        <time>2025-06-22T07:02:28.000Z</time>
      </trkpt>
      <trkpt lat="45.747" lon="1.19733">
        <ele>255.60000610352</ele>
        <time>2025-06-22T07:02:31.000Z</time>
      </trkpt>
      <trkpt lat="45.74696" lon="1.19733">
        <ele>255.60000610352</ele>
        <time>2025-06-22T07:02:34.000Z</time>
      </trkpt>
      <trkpt lat="45.74691" lon="1.19735">
        <ele>255.60000610352</ele>
        <time>2025-06-22T07:02:38.000Z</time>
      </trkpt>
      <trkpt lat="45.74684" lon="1.19732">
        <ele>255.60000610352</ele>
        <time>2025-06-22T07:02:41.000Z</time>
      </trkpt>
      <trkpt lat="45.74684" lon="1.19731">
        <ele>255.39999389648</ele>
        <time>2025-06-22T07:02:42.000Z</time>
      </trkpt>
      <trkpt lat="45.74682" lon="1.19729">
        <ele>255.39999389648</ele>
        <time>2025-06-22T07:02:43.000Z</time>
      </trkpt>
      <trkpt lat="45.74682" lon="1.19718">
        <ele>254.60000610352</ele>
        <time>2025-06-22T07:02:54.000Z</time>
      </trkpt>
      <trkpt lat="45.74681" lon="1.19715">
        <ele>254.60000610352</ele>
        <time>2025-06-22T07:02:55.000Z</time>
      </trkpt>
      <trkpt lat="45.74679" lon="1.19713">
        <ele>254.60000610352</ele>
        <time>2025-06-22T07:02:58.000Z</time>
      </trkpt>
      <trkpt lat="45.74679" lon="1.19702">
        <ele>254.80000305176</ele>
        <time>2025-06-22T07:03:06.000Z</time>
      </trkpt>
      <trkpt lat="45.74681" lon="1.19689">
        <ele>248.6</ele>
        <time>2025-06-22T07:03:09.000Z</time>
      </trkpt>
      <trkpt lat="45.74683" lon="1.1966">
        <ele>249.6</ele>
        <time>2025-06-22T07:03:22.000Z</time>
      </trkpt>
      <trkpt lat="45.74697" lon="1.19612">
        <ele>254.3</ele>
        <time>2025-06-22T07:03:39.000Z</time>
      </trkpt>
      <trkpt lat="45.74713" lon="1.19549">
        <ele>262.2</ele>
        <time>2025-06-22T07:04:09.000Z</time>
      </trkpt>
      <trkpt lat="45.74729" lon="1.19503">
        <ele>266.9</ele>
        <time>2025-06-22T07:04:24.000Z</time>
      </trkpt>
      <trkpt lat="45.74738" lon="1.19465">
        <ele>269.2</ele>
        <time>2025-06-22T07:04:42.000Z</time>
      </trkpt>
      <trkpt lat="45.74754" lon="1.19419">
        <ele>273.4</ele>
        <time>2025-06-22T07:05:06.000Z</time>
      </trkpt>
      <trkpt lat="45.74773" lon="1.19379">
        <ele>278.2</ele>
        <time>2025-06-22T07:05:28.000Z</time>
      </trkpt>
      <trkpt lat="45.74796" lon="1.19339">
        <ele>281.4</ele>
        <time>2025-06-22T07:05:52.000Z</time>
      </trkpt>
      <trkpt lat="45.74921" lon="1.19208">
        <ele>296.6</ele>
        <time>2025-06-22T07:07:28.000Z</time>
      </trkpt>
      <trkpt lat="45.74944" lon="1.19179">
        <ele>297.5</ele>
        <time>2025-06-22T07:07:41.000Z</time>
      </trkpt>
      <trkpt lat="45.7499" lon="1.18987">
        <ele>301</ele>
        <time>2025-06-22T07:08:40.000Z</time>
      </trkpt>
      <trkpt lat="45.74986" lon="1.18925">
        <ele>301.5</ele>
        <time>2025-06-22T07:09:00.000Z</time>
      </trkpt>
      <trkpt lat="45.74989" lon="1.18914">
        <ele>301.5</ele>
        <time>2025-06-22T07:09:05.000Z</time>
      </trkpt>
      <trkpt lat="45.74999" lon="1.18879">
        <ele>302</ele>
        <time>2025-06-22T07:09:18.000Z</time>
      </trkpt>
      <trkpt lat="45.75029" lon="1.18809">
        <ele>300</ele>
        <time>2025-06-22T07:09:33.000Z</time>
      </trkpt>
      <trkpt lat="45.75105" lon="1.18577">
        <ele>286.2</ele>
        <time>2025-06-22T07:09:58.000Z</time>
      </trkpt>
      <trkpt lat="45.75129" lon="1.18527">
        <ele>282.3</ele>
        <time>2025-06-22T07:10:03.000Z</time>
      </trkpt>
      <trkpt lat="45.75164" lon="1.18427">
        <ele>277.3</ele>
      </trkpt>
      <trkpt lat="45.75168" lon="1.18406">
        <ele>276.6</ele>
        <time>2025-06-22T07:10:15.000Z</time>
      </trkpt>
      <trkpt lat="45.75141" lon="1.18315">
        <ele>270.7</ele>
        <time>2025-06-22T07:10:25.000Z</time>
      </trkpt>
      <trkpt lat="45.75141" lon="1.18304">
        <ele>270</ele>
        <time>2025-06-22T07:10:27.000Z</time>
      </trkpt>
      <trkpt lat="45.75166" lon="1.18275">
        <ele>270</ele>
        <time>2025-06-22T07:10:33.000Z</time>
      </trkpt>
      <trkpt lat="45.75195" lon="1.18222">
        <ele>275</ele>
        <time>2025-06-22T07:11:08.000Z</time>
      </trkpt>
      <trkpt lat="45.75201" lon="1.18208">
        <ele>275.5</ele>
        <time>2025-06-22T07:11:10.000Z</time>
      </trkpt>
      <trkpt lat="45.75202" lon="1.18201">
        <ele>275.8</ele>
        <time>2025-06-22T07:11:11.000Z</time>
      </trkpt>
      <trkpt lat="45.75225" lon="1.18149">
        <ele>277.5</ele>
        <time>2025-06-22T07:11:24.000Z</time>
      </trkpt>
      <trkpt lat="45.75226" lon="1.18099">
        <ele>280.7</ele>
        <time>2025-06-22T07:11:43.000Z</time>
      </trkpt>
      <trkpt lat="45.75266" lon="1.17998">
        <ele>288.3</ele>
        <time>2025-06-22T07:12:22.000Z</time>
      </trkpt>
      <trkpt lat="45.75281" lon="1.17948">
        <ele>292.9</ele>
        <time>2025-06-22T07:12:41.000Z</time>
      </trkpt>
      <trkpt lat="45.75335" lon="1.1776">
        <ele>301.8</ele>
        <time>2025-06-22T07:13:39.000Z</time>
      </trkpt>
      <trkpt lat="45.75371" lon="1.17647">
        <ele>303.3</ele>
        <time>2025-06-22T07:14:08.000Z</time>
      </trkpt>
      <trkpt lat="45.75381" lon="1.17589">
        <ele>305.8</ele>
      </trkpt>
      <trkpt lat="45.75418" lon="1.17414">
        <ele>312.2</ele>
        <time>2025-06-22T07:15:05.000Z</time>
      </trkpt>
      <trkpt lat="45.75455" lon="1.17416">
        <ele>310.7</ele>
        <time>2025-06-22T07:15:16.000Z</time>
      </trkpt>
      <trkpt lat="45.75481" lon="1.17413">
        <ele>309.8</ele>
        <time>2025-06-22T07:15:23.000Z</time>
      </trkpt>
      <trkpt lat="45.75547" lon="1.17397">
        <ele>310.1</ele>
        <time>2025-06-22T07:15:40.000Z</time>
      </trkpt>
      <trkpt lat="45.75599" lon="1.17368">
        <ele>311</ele>
        <time>2025-06-22T07:15:53.000Z</time>
      </trkpt>
      <trkpt lat="45.756" lon="1.17359">
        <ele>311.5</ele>
        <time>2025-06-22T07:15:56.000Z</time>
      </trkpt>
      <trkpt lat="45.75591" lon="1.17289">
        <ele>314.3</ele>
        <time>2025-06-22T07:16:08.000Z</time>
      </trkpt>
      <trkpt lat="45.75592" lon="1.1726">
        <ele>315</ele>
        <time>2025-06-22T07:16:20.000Z</time>
      </trkpt>
      <trkpt lat="45.75588" lon="1.17243">
        <ele>315.9</ele>
        <time>2025-06-22T07:16:28.000Z</time>
      </trkpt>
      <trkpt lat="45.75585" lon="1.17234">
        <ele>316.5</ele>
        <time>2025-06-22T07:16:30.000Z</time>
      </trkpt>
      <trkpt lat="45.75582" lon="1.17215">
        <ele>317.3</ele>
        <time>2025-06-22T07:16:37.000Z</time>
      </trkpt>
      <trkpt lat="45.75571" lon="1.17202">
        <ele>318.6</ele>
        <time>2025-06-22T07:16:40.000Z</time>
      </trkpt>
      <trkpt lat="45.75555" lon="1.17185">
        <ele>320.4</ele>
        <time>2025-06-22T07:16:49.000Z</time>
      </trkpt>
      <trkpt lat="45.75522" lon="1.17168">
        <ele>322.1</ele>
        <time>2025-06-22T07:17:14.000Z</time>
      </trkpt>
      <trkpt lat="45.75491" lon="1.17162">
        <ele>322.9</ele>
        <time>2025-06-22T07:17:25.000Z</time>
      </trkpt>
      <trkpt lat="45.7541" lon="1.17118">
        <ele>325.5</ele>
        <time>2025-06-22T07:18:06.000Z</time>
      </trkpt>
      <trkpt lat="45.75382" lon="1.17108">
        <ele>326.3</ele>
        <time>2025-06-22T07:18:17.000Z</time>
      </trkpt>
      <trkpt lat="45.75366" lon="1.17096">
        <ele>327.1</ele>
        <time>2025-06-22T07:18:26.000Z</time>
      </trkpt>
      <trkpt lat="45.75339" lon="1.16891">
        <ele>334.2</ele>
        <time>2025-06-22T07:19:39.000Z</time>
      </trkpt>
      <trkpt lat="45.75215" lon="1.16898">
        <ele>336.3</ele>
        <time>2025-06-22T07:20:18.000Z</time>
      </trkpt>
      <trkpt lat="45.75208" lon="1.16783">
        <ele>332.2</ele>
        <time>2025-06-22T07:20:39.000Z</time>
      </trkpt>
      <trkpt lat="45.75204" lon="1.16779">
        <ele>332.4</ele>
        <time>2025-06-22T07:20:44.000Z</time>
      </trkpt>
      <trkpt lat="45.75184" lon="1.16769">
        <ele>334</ele>
      </trkpt>
      <trkpt lat="45.75158" lon="1.1675">
        <ele>335.9</ele>
        <time>2025-06-22T07:21:03.000Z</time>
      </trkpt>
      <trkpt lat="45.7506" lon="1.16713">
        <ele>343.3</ele>
        <time>2025-06-22T07:21:56.000Z</time>
      </trkpt>
      <trkpt lat="45.7503" lon="1.16679">
        <ele>344.8</ele>
        <time>2025-06-22T07:22:17.000Z</time>
      </trkpt>
      <trkpt lat="45.74994" lon="1.16657">
        <ele>348.7</ele>
      </trkpt>
      <trkpt lat="45.74934" lon="1.16611">
        <ele>352</ele>
        <time>2025-06-22T07:23:04.000Z</time>
      </trkpt>
      <trkpt lat="45.74918" lon="1.1659">
        <ele>353.5</ele>
        <time>2025-06-22T07:23:19.000Z</time>
      </trkpt>
      <trkpt lat="45.74874" lon="1.16516">
        <ele>355.7</ele>
        <time>2025-06-22T07:23:41.000Z</time>
      </trkpt>
      <trkpt lat="45.74865" lon="1.16502">
        <ele>355.9</ele>
        <time>2025-06-22T07:23:45.000Z</time>
      </trkpt>
      <trkpt lat="45.74695" lon="1.16362">
        <ele>351</ele>
        <time>2025-06-22T07:24:30.000Z</time>
      </trkpt>
      <trkpt lat="45.74565" lon="1.15998">
        <ele>339</ele>
      </trkpt>
      <trkpt lat="45.74557" lon="1.16006">
        <ele>339.2</ele>
        <time>2025-06-22T07:25:21.000Z</time>
      </trkpt>
      <trkpt lat="45.74403" lon="1.16173">
        <ele>340.1</ele>
      </trkpt>
      <trkpt lat="45.74369" lon="1.16205">
        <ele>340.5</ele>
        <time>2025-06-22T07:26:16.000Z</time>
      </trkpt>
      <trkpt lat="45.74342" lon="1.16247">
        <ele>342.8</ele>
        <time>2025-06-22T07:26:30.000Z</time>
      </trkpt>
      <trkpt lat="45.74337" lon="1.16269">
        <ele>343.1</ele>
        <time>2025-06-22T07:26:36.000Z</time>
      </trkpt>
      <trkpt lat="45.74163" lon="1.16269">
        <ele>338.2</ele>
        <time>2025-06-22T07:27:16.000Z</time>
      </trkpt>
      <trkpt lat="45.7414" lon="1.1626">
        <ele>337.1</ele>
        <time>2025-06-22T07:27:21.000Z</time>
      </trkpt>
      <trkpt lat="45.74137" lon="1.16267">
        <ele>337</ele>
        <time>2025-06-22T07:27:22.000Z</time>
      </trkpt>
      <trkpt lat="45.74007" lon="1.16329">
        <ele>339.8</ele>
      </trkpt>
      <trkpt lat="45.73968" lon="1.16345">
        <ele>340.6</ele>
        <time>2025-06-22T07:28:11.000Z</time>
      </trkpt>
      <trkpt lat="45.73928" lon="1.16353">
        <ele>339.7</ele>
        <time>2025-06-22T07:28:19.000Z</time>
      </trkpt>
      <trkpt lat="45.73899" lon="1.1635">
        <ele>338.2</ele>
        <time>2025-06-22T07:28:28.000Z</time>
      </trkpt>
      <trkpt lat="45.73893" lon="1.16341">
        <ele>338.1</ele>
        <time>2025-06-22T07:28:33.000Z</time>
      </trkpt>
      <trkpt lat="45.73746" lon="1.16331">
        <ele>330.9</ele>
      </trkpt>
      <trkpt lat="45.73664" lon="1.1632">
        <ele>329.4</ele>
        <time>2025-06-22T07:29:15.000Z</time>
      </trkpt>
      <trkpt lat="45.73599" lon="1.16342">
        <ele>327.2</ele>
        <time>2025-06-22T07:29:42.000Z</time>
      </trkpt>
      <trkpt lat="45.73531" lon="1.16312">
        <ele>326.8</ele>
        <time>2025-06-22T07:29:58.000Z</time>
      </trkpt>
      <trkpt lat="45.73478" lon="1.1631">
        <ele>325.2</ele>
        <time>2025-06-22T07:30:15.000Z</time>
      </trkpt>
      <trkpt lat="45.73274" lon="1.16338">
        <ele>336.7</ele>
        <time>2025-06-22T07:31:25.000Z</time>
      </trkpt>
      <trkpt lat="45.7321" lon="1.16331">
        <ele>334.6</ele>
        <time>2025-06-22T07:31:42.000Z</time>
      </trkpt>
      <trkpt lat="45.73194" lon="1.16326">
        <ele>333.9</ele>
        <time>2025-06-22T07:31:49.000Z</time>
      </trkpt>
      <trkpt lat="45.73164" lon="1.16303">
        <ele>332</ele>
      </trkpt>
      <trkpt lat="45.73092" lon="1.16263">
        <ele>329.5</ele>
        <time>2025-06-22T07:32:17.000Z</time>
      </trkpt>
      <trkpt lat="45.73088" lon="1.16267">
        <ele>329.2</ele>
        <time>2025-06-22T07:32:19.000Z</time>
      </trkpt>
      <trkpt lat="45.73035" lon="1.16318">
        <ele>326.2</ele>
        <time>2025-06-22T07:32:31.000Z</time>
      </trkpt>
      <trkpt lat="45.73018" lon="1.16339">
        <ele>325.6</ele>
        <time>2025-06-22T07:32:34.000Z</time>
      </trkpt>
      <trkpt lat="45.72958" lon="1.16389">
        <ele>326</ele>
        <time>2025-06-22T07:32:53.000Z</time>
      </trkpt>
      <trkpt lat="45.72923" lon="1.16409">
        <ele>327.5</ele>
        <time>2025-06-22T07:33:13.000Z</time>
      </trkpt>
      <trkpt lat="45.72871" lon="1.16464">
        <ele>329.9</ele>
        <time>2025-06-22T07:33:32.000Z</time>
      </trkpt>
      <trkpt lat="45.72845" lon="1.16503">
        <ele>330.1</ele>
        <time>2025-06-22T07:33:40.000Z</time>
      </trkpt>
      <trkpt lat="45.72825" lon="1.16568">
        <ele>328.5</ele>
        <time>2025-06-22T07:33:54.000Z</time>
      </trkpt>
      <trkpt lat="45.72795" lon="1.16616">
        <ele>325.6</ele>
        <time>2025-06-22T07:34:04.000Z</time>
      </trkpt>
      <trkpt lat="45.72742" lon="1.16705">
        <ele>324.1</ele>
        <time>2025-06-22T07:34:26.000Z</time>
      </trkpt>
      <trkpt lat="45.72705" lon="1.16791">
        <ele>327.2</ele>
        <time>2025-06-22T07:34:50.000Z</time>
      </trkpt>
      <trkpt lat="45.72681" lon="1.16866">
        <ele>327.5</ele>
        <time>2025-06-22T07:35:07.000Z</time>
      </trkpt>
      <trkpt lat="45.72661" lon="1.1689">
        <ele>326.8</ele>
        <time>2025-06-22T07:35:18.000Z</time>
      </trkpt>
      <trkpt lat="45.72639" lon="1.16926">
        <ele>326</ele>
        <time>2025-06-22T07:35:22.000Z</time>
      </trkpt>
      <trkpt lat="45.72625" lon="1.16945">
        <ele>326</ele>
        <time>2025-06-22T07:35:24.000Z</time>
      </trkpt>
      <trkpt lat="45.72613" lon="1.16957">
        <ele>326</ele>
        <time>2025-06-22T07:35:31.000Z</time>
      </trkpt>
      <trkpt lat="45.72604" lon="1.16964">
        <ele>325.9</ele>
        <time>2025-06-22T07:35:33.000Z</time>
      </trkpt>
      <trkpt lat="45.72596" lon="1.16968">
        <ele>325.9</ele>
        <time>2025-06-22T07:35:36.000Z</time>
      </trkpt>
      <trkpt lat="45.72574" lon="1.16972">
        <ele>326</ele>
        <time>2025-06-22T07:35:43.000Z</time>
      </trkpt>
      <trkpt lat="45.72519" lon="1.16958">
        <ele>325.5</ele>
        <time>2025-06-22T07:35:56.000Z</time>
      </trkpt>
      <trkpt lat="45.72404" lon="1.16945">
        <ele>330.5</ele>
      </trkpt>
      <trkpt lat="45.72395" lon="1.16944">
        <ele>330.8</ele>
        <time>2025-06-22T07:36:34.000Z</time>
      </trkpt>
      <trkpt lat="45.7237" lon="1.16927">
        <ele>331.7</ele>
        <time>2025-06-22T07:36:37.000Z</time>
      </trkpt>
      <trkpt lat="45.7237" lon="1.16934">
        <ele>331.7</ele>
      </trkpt>
      <trkpt lat="45.72414" lon="1.17208">
        <ele>327.2</ele>
        <time>2025-06-22T07:37:24.000Z</time>
      </trkpt>
      <trkpt lat="45.72416" lon="1.17214">
        <ele>327</ele>
        <time>2025-06-22T07:37:26.000Z</time>
      </trkpt>
      <trkpt lat="45.72419" lon="1.17226">
        <ele>326.9</ele>
        <time>2025-06-22T07:37:28.000Z</time>
      </trkpt>
      <trkpt lat="45.72428" lon="1.1723">
        <ele>326.6</ele>
        <time>2025-06-22T07:37:29.000Z</time>
      </trkpt>
      <trkpt lat="45.72526" lon="1.17218">
        <ele>319.3</ele>
        <time>2025-06-22T07:37:51.000Z</time>
      </trkpt>
      <trkpt lat="45.72567" lon="1.17441">
        <ele>311.3</ele>
        <time>2025-06-22T07:38:23.000Z</time>
      </trkpt>
      <trkpt lat="45.72595" lon="1.17641">
        <ele>302.7</ele>
        <time>2025-06-22T07:38:48.000Z</time>
      </trkpt>
      <trkpt lat="45.72591" lon="1.17674">
        <ele>302.9</ele>
        <time>2025-06-22T07:38:53.000Z</time>
      </trkpt>
      <trkpt lat="45.72556" lon="1.17769">
        <ele>303.7</ele>
        <time>2025-06-22T07:39:17.000Z</time>
      </trkpt>
      <trkpt lat="45.72525" lon="1.17895">
        <ele>311.2</ele>
      </trkpt>
      <trkpt lat="45.7247" lon="1.18079">
        <ele>318.8</ele>
        <time>2025-06-22T07:40:47.000Z</time>
      </trkpt>
      <trkpt lat="45.72454" lon="1.18119">
        <ele>320.2</ele>
        <time>2025-06-22T07:40:57.000Z</time>
      </trkpt>
      <trkpt lat="45.72444" lon="1.18134">
        <ele>320.7</ele>
        <time>2025-06-22T07:41:03.000Z</time>
      </trkpt>
      <trkpt lat="45.7242" lon="1.18164">
        <ele>321</ele>
        <time>2025-06-22T07:41:16.000Z</time>
      </trkpt>
      <trkpt lat="45.72403" lon="1.182">
        <ele>322.2</ele>
        <time>2025-06-22T07:41:28.000Z</time>
      </trkpt>
      <trkpt lat="45.72383" lon="1.1826">
        <ele>323.4</ele>
      </trkpt>
      <trkpt lat="45.72345" lon="1.18362">
        <ele>325.3</ele>
        <time>2025-06-22T07:42:11.000Z</time>
      </trkpt>
      <trkpt lat="45.72341" lon="1.18422">
        <ele>324.9</ele>
        <time>2025-06-22T07:42:22.000Z</time>
      </trkpt>
      <trkpt lat="45.72326" lon="1.18491">
        <ele>324.7</ele>
        <time>2025-06-22T07:42:32.000Z</time>
      </trkpt>
      <trkpt lat="45.72311" lon="1.18536">
        <ele>323.7</ele>
        <time>2025-06-22T07:42:44.000Z</time>
      </trkpt>
      <trkpt lat="45.72305" lon="1.18568">
        <ele>324</ele>
        <time>2025-06-22T07:42:50.000Z</time>
      </trkpt>
      <trkpt lat="45.72307" lon="1.18646">
        <ele>324.8</ele>
        <time>2025-06-22T07:43:07.000Z</time>
      </trkpt>
      <trkpt lat="45.7231" lon="1.18673">
        <ele>324.3</ele>
        <time>2025-06-22T07:43:15.000Z</time>
      </trkpt>
      <trkpt lat="45.72321" lon="1.18728">
        <ele>325.1</ele>
        <time>2025-06-22T07:43:22.000Z</time>
      </trkpt>
      <trkpt lat="45.72323" lon="1.1878">
        <ele>325.7</ele>
        <time>2025-06-22T07:43:26.000Z</time>
      </trkpt>
      <trkpt lat="45.7232" lon="1.18792">
        <ele>325.8</ele>
        <time>2025-06-22T07:43:31.000Z</time>
      </trkpt>
      <trkpt lat="45.723" lon="1.188">
        <ele>325.8</ele>
        <time>2025-06-22T07:43:40.000Z</time>
      </trkpt>
      <trkpt lat="45.72295" lon="1.18813">
        <ele>326.3</ele>
        <time>2025-06-22T07:43:44.000Z</time>
      </trkpt>
      <trkpt lat="45.72268" lon="1.18975">
        <ele>331.5</ele>
        <time>2025-06-22T07:44:22.000Z</time>
      </trkpt>
      <trkpt lat="45.72266" lon="1.19016">
        <ele>333.5</ele>
        <time>2025-06-22T07:44:33.000Z</time>
      </trkpt>
      <trkpt lat="45.72267" lon="1.19047">
        <ele>335.1</ele>
        <time>2025-06-22T07:44:43.000Z</time>
      </trkpt>
      <trkpt lat="45.72268" lon="1.19121">
        <ele>338.3</ele>
        <time>2025-06-22T07:45:02.000Z</time>
      </trkpt>
      <trkpt lat="45.72269" lon="1.19147">
        <ele>339.4</ele>
      </trkpt>
      <trkpt lat="45.7227" lon="1.19228">
        <ele>341.3</ele>
      </trkpt>
      <trkpt lat="45.7227" lon="1.1924">
        <ele>341.3</ele>
        <time>2025-06-22T07:45:34.000Z</time>
      </trkpt>
      <trkpt lat="45.72268" lon="1.19243">
        <ele>341.4</ele>
        <time>2025-06-22T07:45:37.000Z</time>
      </trkpt>
      <trkpt lat="45.7226" lon="1.19259">
        <ele>341.6</ele>
        <time>2025-06-22T07:45:38.000Z</time>
      </trkpt>
      <trkpt lat="45.7224" lon="1.19311">
        <ele>342.4</ele>
        <time>2025-06-22T07:45:56.000Z</time>
      </trkpt>
      <trkpt lat="45.72188" lon="1.19403">
        <ele>342.1</ele>
        <time>2025-06-22T07:46:20.000Z</time>
      </trkpt>
      <trkpt lat="45.72185" lon="1.19417">
        <ele>342.4</ele>
        <time>2025-06-22T07:46:22.000Z</time>
      </trkpt>
      <trkpt lat="45.72096" lon="1.19457">
        <ele>342.2</ele>
        <time>2025-06-22T07:46:44.000Z</time>
      </trkpt>
      <trkpt lat="45.72098" lon="1.19466">
        <ele>342.4</ele>
        <time>2025-06-22T07:46:47.000Z</time>
      </trkpt>
      <trkpt lat="45.72103" lon="1.19481">
        <ele>342.8</ele>
        <time>2025-06-22T07:46:49.000Z</time>
      </trkpt>
      <trkpt lat="45.7211" lon="1.1949">
        <ele>343</ele>
        <time>2025-06-22T07:46:52.000Z</time>
      </trkpt>
      <trkpt lat="45.72116" lon="1.19489">
        <ele>343</ele>
        <time>2025-06-22T07:46:56.000Z</time>
      </trkpt>
      <trkpt lat="45.72125" lon="1.19496">
        <ele>343</ele>
        <time>2025-06-22T07:46:58.000Z</time>
      </trkpt>
      <trkpt lat="45.72151" lon="1.19575">
        <ele>341.2</ele>
      </trkpt>
      <trkpt lat="45.72156" lon="1.19584">
        <ele>341</ele>
      </trkpt>
      <trkpt lat="45.72174" lon="1.19638">
        <ele>338.7</ele>
      </trkpt>
      <trkpt lat="45.72178" lon="1.19643">
        <ele>338.4</ele>
        <time>2025-06-22T07:47:24.000Z</time>
      </trkpt>
      <trkpt lat="45.72196" lon="1.19651">
        <ele>337.6</ele>
        <time>2025-06-22T07:47:28.000Z</time>
      </trkpt>
      <trkpt lat="45.72207" lon="1.19675">
        <ele>336.7</ele>
        <time>2025-06-22T07:47:32.000Z</time>
      </trkpt>
      <trkpt lat="45.72208" lon="1.19685">
        <ele>336.3</ele>
        <time>2025-06-22T07:47:38.000Z</time>
      </trkpt>
      <trkpt lat="45.722" lon="1.19689">
        <ele>337.60000610352</ele>
        <time>2025-06-22T07:47:43.000Z</time>
      </trkpt>
      <trkpt lat="45.72158" lon="1.19715">
        <ele>335.8</ele>
        <time>2025-06-22T07:47:54.000Z</time>
      </trkpt>
      <trkpt lat="45.72108" lon="1.19736">
        <ele>335.6</ele>
      </trkpt>
      <trkpt lat="45.72076" lon="1.19763">
        <ele>336.1</ele>
        <time>2025-06-22T07:48:15.000Z</time>
      </trkpt>
      <trkpt lat="45.72052" lon="1.19802">
        <ele>336.4</ele>
        <time>2025-06-22T07:48:25.000Z</time>
      </trkpt>
      <trkpt lat="45.72022" lon="1.19881">
        <ele>335</ele>
        <time>2025-06-22T07:48:39.000Z</time>
      </trkpt>
      <trkpt lat="45.72011" lon="1.19919">
        <ele>336.4</ele>
      </trkpt>
      <trkpt lat="45.72001" lon="1.19948">
        <ele>336.6</ele>
        <time>2025-06-22T07:48:54.000Z</time>
      </trkpt>
      <trkpt lat="45.71991" lon="1.19969">
        <ele>336.2</ele>
        <time>2025-06-22T07:49:01.000Z</time>
      </trkpt>
      <trkpt lat="45.71969" lon="1.19998">
        <ele>338.2</ele>
        <time>2025-06-22T07:49:12.000Z</time>
      </trkpt>
      <trkpt lat="45.71948" lon="1.2">
        <ele>339.8</ele>
        <time>2025-06-22T07:49:15.000Z</time>
      </trkpt>
      <trkpt lat="45.71883" lon="1.19995">
        <ele>341.8</ele>
        <time>2025-06-22T07:49:42.000Z</time>
      </trkpt>
      <trkpt lat="45.71877" lon="1.19977">
        <ele>341.6</ele>
        <time>2025-06-22T07:49:43.000Z</time>
      </trkpt>
      <trkpt lat="45.71856" lon="1.1995">
        <ele>340.8</ele>
        <time>2025-06-22T07:59:00.000Z</time>
      </trkpt>
      <trkpt lat="45.71837" lon="1.19923">
        <ele>340.9</ele>
        <time>2025-06-22T07:59:09.000Z</time>
      </trkpt>
      <trkpt lat="45.71794" lon="1.19859">
        <ele>339.3</ele>
        <time>2025-06-22T07:59:32.000Z</time>
      </trkpt>
      <trkpt lat="45.71756" lon="1.19795">
        <ele>340.1</ele>
        <time>2025-06-22T07:59:47.000Z</time>
      </trkpt>
      <trkpt lat="45.71732" lon="1.19767">
        <ele>342.39999389648</ele>
        <time>2025-06-22T08:00:00.000Z</time>
      </trkpt>
      <trkpt lat="45.71716" lon="1.19749">
        <ele>340.1</ele>
        <time>2025-06-22T08:00:08.000Z</time>
      </trkpt>
      <trkpt lat="45.71682" lon="1.1977">
        <ele>338.6</ele>
        <time>2025-06-22T08:00:14.000Z</time>
      </trkpt>
      <trkpt lat="45.71636" lon="1.19791">
        <ele>337.2</ele>
        <time>2025-06-22T08:00:29.000Z</time>
      </trkpt>
      <trkpt lat="45.71603" lon="1.19816">
        <ele>336.5</ele>
        <time>2025-06-22T08:00:39.000Z</time>
      </trkpt>
      <trkpt lat="45.71525" lon="1.19861">
        <ele>336</ele>
        <time>2025-06-22T08:01:02.000Z</time>
      </trkpt>
      <trkpt lat="45.71518" lon="1.19869">
        <ele>335.5</ele>
        <time>2025-06-22T08:01:03.000Z</time>
      </trkpt>
      <trkpt lat="45.71499" lon="1.19922">
        <ele>335.3</ele>
        <time>2025-06-22T08:01:23.000Z</time>
      </trkpt>
      <trkpt lat="45.71501" lon="1.19966">
        <ele>335.9</ele>
        <time>2025-06-22T08:01:31.000Z</time>
      </trkpt>
      <trkpt lat="45.71479" lon="1.19999">
        <ele>336.8</ele>
        <time>2025-06-22T08:01:44.000Z</time>
      </trkpt>
      <trkpt lat="45.71464" lon="1.19999">
        <ele>337.3</ele>
        <time>2025-06-22T08:01:48.000Z</time>
      </trkpt>
      <trkpt lat="45.71434" lon="1.19994">
        <ele>338</ele>
        <time>2025-06-22T08:01:59.000Z</time>
      </trkpt>
      <trkpt lat="45.71421" lon="1.19996">
        <ele>338</ele>
        <time>2025-06-22T08:02:02.000Z</time>
      </trkpt>
      <trkpt lat="45.71451" lon="1.20103">
        <ele>335.5</ele>
        <time>2025-06-22T08:02:22.000Z</time>
      </trkpt>
      <trkpt lat="45.71456" lon="1.20151">
        <ele>333.4</ele>
        <time>2025-06-22T08:02:28.000Z</time>
      </trkpt>
      <trkpt lat="45.7146" lon="1.20214">
        <ele>329.9</ele>
        <time>2025-06-22T08:02:34.000Z</time>
      </trkpt>
      <trkpt lat="45.71467" lon="1.20297">
        <ele>324.8</ele>
        <time>2025-06-22T08:02:39.000Z</time>
      </trkpt>
      <trkpt lat="45.71466" lon="1.20326">
        <ele>324.3</ele>
        <time>2025-06-22T08:02:41.000Z</time>
      </trkpt>
      <trkpt lat="45.71443" lon="1.20507">
        <ele>313.6</ele>
        <time>2025-06-22T08:02:54.000Z</time>
      </trkpt>
      <trkpt lat="45.71437" lon="1.20534">
        <ele>311.9</ele>
        <time>2025-06-22T08:02:55.000Z</time>
      </trkpt>
      <trkpt lat="45.71425" lon="1.20559">
        <ele>310</ele>
        <time>2025-06-22T08:02:59.000Z</time>
      </trkpt>
      <trkpt lat="45.71378" lon="1.20622">
        <ele>306.9</ele>
        <time>2025-06-22T08:03:03.000Z</time>
      </trkpt>
      <trkpt lat="45.71371" lon="1.20636">
        <ele>306.1</ele>
        <time>2025-06-22T08:03:05.000Z</time>
      </trkpt>
      <trkpt lat="45.71368" lon="1.20666">
        <ele>305.3</ele>
        <time>2025-06-22T08:03:07.000Z</time>
      </trkpt>
      <trkpt lat="45.71372" lon="1.2069">
        <ele>306.7</ele>
        <time>2025-06-22T08:03:09.000Z</time>
      </trkpt>
      <trkpt lat="45.71377" lon="1.20703">
        <ele>308.1</ele>
        <time>2025-06-22T08:03:10.000Z</time>
      </trkpt>
      <trkpt lat="45.71254" lon="1.20826">
        <ele>324.9</ele>
        <time>2025-06-22T08:04:13.000Z</time>
      </trkpt>
      <trkpt lat="45.71217" lon="1.20956">
        <ele>338.6</ele>
        <time>2025-06-22T08:05:07.000Z</time>
      </trkpt>
      <trkpt lat="45.71169" lon="1.21113">
        <ele>350.1</ele>
        <time>2025-06-22T08:06:11.000Z</time>
      </trkpt>
      <trkpt lat="45.71148" lon="1.21108">
        <ele>348.4</ele>
        <time>2025-06-22T08:06:18.000Z</time>
      </trkpt>
      <trkpt lat="45.71124" lon="1.21116">
        <ele>347.3</ele>
        <time>2025-06-22T08:06:25.000Z</time>
      </trkpt>
      <trkpt lat="45.71112" lon="1.21104">
        <ele>345.5</ele>
        <time>2025-06-22T08:06:29.000Z</time>
      </trkpt>
      <trkpt lat="45.71104" lon="1.21106">
        <ele>345.1</ele>
        <time>2025-06-22T08:06:31.000Z</time>
      </trkpt>
      <trkpt lat="45.70985" lon="1.21223">
        <ele>340.4</ele>
        <time>2025-06-22T08:07:00.000Z</time>
      </trkpt>
      <trkpt lat="45.70979" lon="1.21231">
        <ele>340</ele>
        <time>2025-06-22T08:07:08.000Z</time>
      </trkpt>
      <trkpt lat="45.70974" lon="1.21249">
        <ele>340</ele>
        <time>2025-06-22T08:07:12.000Z</time>
      </trkpt>
      <trkpt lat="45.70935" lon="1.2148">
        <ele>338.3</ele>
        <time>2025-06-22T08:07:53.000Z</time>
      </trkpt>
      <trkpt lat="45.70937" lon="1.21641">
        <ele>340.1</ele>
        <time>2025-06-22T08:08:21.000Z</time>
      </trkpt>
      <trkpt lat="45.70935" lon="1.21702">
        <ele>341.3</ele>
        <time>2025-06-22T08:08:34.000Z</time>
      </trkpt>
      <trkpt lat="45.70929" lon="1.21757">
        <ele>342</ele>
        <time>2025-06-22T08:08:45.000Z</time>
      </trkpt>
      <trkpt lat="45.70908" lon="1.21842">
        <ele>341.5</ele>
        <time>2025-06-22T08:09:12.000Z</time>
      </trkpt>
      <trkpt lat="45.70955" lon="1.21844">
        <ele>349.7</ele>
        <time>2025-06-22T08:09:49.000Z</time>
      </trkpt>
      <trkpt lat="45.70977" lon="1.21828">
        <ele>352.6</ele>
        <time>2025-06-22T08:09:57.000Z</time>
      </trkpt>
      <trkpt lat="45.71004" lon="1.21823">
        <ele>355.9</ele>
        <time>2025-06-22T08:10:10.000Z</time>
      </trkpt>
      <trkpt lat="45.71025" lon="1.21823">
        <ele>357</ele>
        <time>2025-06-22T08:10:18.000Z</time>
      </trkpt>
      <trkpt lat="45.71105" lon="1.21823">
        <ele>363.9</ele>
        <time>2025-06-22T08:11:06.000Z</time>
      </trkpt>
      <trkpt lat="45.7116" lon="1.2183">
        <ele>368.6</ele>
        <time>2025-06-22T08:11:34.000Z</time>
      </trkpt>
      <trkpt lat="45.71214" lon="1.21852">
        <ele>370.39999389648</ele>
        <time>2025-06-22T08:11:58.000Z</time>
      </trkpt>
      <trkpt lat="45.71254" lon="1.21879">
        <ele>368</ele>
        <time>2025-06-22T08:12:13.000Z</time>
      </trkpt>
      <trkpt lat="45.71275" lon="1.21909">
        <ele>366.1</ele>
        <time>2025-06-22T08:12:20.000Z</time>
      </trkpt>
      <trkpt lat="45.71297" lon="1.21994">
        <ele>365.3</ele>
        <time>2025-06-22T08:12:28.000Z</time>
      </trkpt>
      <trkpt lat="45.7132" lon="1.2205">
        <ele>364.7</ele>
        <time>2025-06-22T08:12:29.000Z</time>
      </trkpt>
      <trkpt lat="45.71351" lon="1.22112">
        <ele>364.4</ele>
        <time>2025-06-22T08:12:50.000Z</time>
      </trkpt>
      <trkpt lat="45.7145" lon="1.22216">
        <ele>365.8</ele>
        <time>2025-06-22T08:13:20.000Z</time>
      </trkpt>
      <trkpt lat="45.71596" lon="1.22309">
        <ele>376.1</ele>
        <time>2025-06-22T08:14:12.000Z</time>
      </trkpt>
      <trkpt lat="45.71604" lon="1.22313">
        <ele>376.8</ele>
        <time>2025-06-22T08:14:20.000Z</time>
      </trkpt>
      <trkpt lat="45.71671" lon="1.22357">
        <ele>384.6</ele>
        <time>2025-06-22T08:14:55.000Z</time>
      </trkpt>
      <trkpt lat="45.71754" lon="1.22395">
        <ele>392.3</ele>
        <time>2025-06-22T08:15:40.000Z</time>
      </trkpt>
      <trkpt lat="45.71762" lon="1.224">
        <ele>392.9</ele>
        <time>2025-06-22T08:15:44.000Z</time>
      </trkpt>
      <trkpt lat="45.71831" lon="1.22424">
        <ele>394</ele>
        <time>2025-06-22T08:16:09.000Z</time>
      </trkpt>
      <trkpt lat="45.71916" lon="1.22441">
        <ele>390.1</ele>
        <time>2025-06-22T08:16:23.000Z</time>
      </trkpt>
      <trkpt lat="45.71927" lon="1.2244">
        <ele>389.4</ele>
      </trkpt>
      <trkpt lat="45.71936" lon="1.22441">
        <ele>388.7</ele>
        <time>2025-06-22T08:16:29.000Z</time>
      </trkpt>
      <trkpt lat="45.71942" lon="1.22437">
        <ele>388.5</ele>
        <time>2025-06-22T08:16:33.000Z</time>
      </trkpt>
      <trkpt lat="45.7196" lon="1.2234">
        <ele>390.9</ele>
        <time>2025-06-22T08:16:58.000Z</time>
      </trkpt>
      <trkpt lat="45.71992" lon="1.22219">
        <ele>385.1</ele>
        <time>2025-06-22T08:17:13.000Z</time>
      </trkpt>
      <trkpt lat="45.72033" lon="1.22085">
        <ele>372.2</ele>
        <time>2025-06-22T08:17:32.000Z</time>
      </trkpt>
      <trkpt lat="45.72049" lon="1.2208">
        <ele>371.6</ele>
        <time>2025-06-22T08:17:35.000Z</time>
      </trkpt>
      <trkpt lat="45.72065" lon="1.2208">
        <ele>371.3</ele>
        <time>2025-06-22T08:17:38.000Z</time>
      </trkpt>
      <trkpt lat="45.72132" lon="1.2211">
        <ele>374.2</ele>
        <time>2025-06-22T08:17:56.000Z</time>
      </trkpt>
      <trkpt lat="45.72164" lon="1.22146">
        <ele>376.9</ele>
        <time>2025-06-22T08:18:12.000Z</time>
      </trkpt>
      <trkpt lat="45.72183" lon="1.22188">
        <ele>379.8</ele>
        <time>2025-06-22T08:18:27.000Z</time>
      </trkpt>
      <trkpt lat="45.72222" lon="1.22257">
        <ele>381.60000610352</ele>
        <time>2025-06-22T08:18:50.000Z</time>
      </trkpt>
      <trkpt lat="45.72259" lon="1.22337">
        <ele>379.6</ele>
        <time>2025-06-22T08:19:07.000Z</time>
      </trkpt>
      <trkpt lat="45.72289" lon="1.22415">
        <ele>373.9</ele>
        <time>2025-06-22T08:19:22.000Z</time>
      </trkpt>
      <trkpt lat="45.72297" lon="1.22452">
        <ele>369.8</ele>
        <time>2025-06-22T08:19:33.000Z</time>
      </trkpt>
      <trkpt lat="45.72309" lon="1.22487">
        <ele>365.3</ele>
        <time>2025-06-22T08:19:39.000Z</time>
      </trkpt>
      <trkpt lat="45.72316" lon="1.22499">
        <ele>363.7</ele>
        <time>2025-06-22T08:19:41.000Z</time>
      </trkpt>
      <trkpt lat="45.72341" lon="1.22509">
        <ele>362.1</ele>
        <time>2025-06-22T08:19:45.000Z</time>
      </trkpt>
      <trkpt lat="45.72482" lon="1.22521">
        <ele>352.8</ele>
        <time>2025-06-22T08:20:07.000Z</time>
      </trkpt>
      <trkpt lat="45.72492" lon="1.22517">
        <ele>352.3</ele>
        <time>2025-06-22T08:20:14.000Z</time>
      </trkpt>
      <trkpt lat="45.72672" lon="1.22535">
        <ele>337.4</ele>
        <time>2025-06-22T08:20:45.000Z</time>
      </trkpt>
      <trkpt lat="45.7274" lon="1.22577">
        <ele>337.5</ele>
        <time>2025-06-22T08:21:02.000Z</time>
      </trkpt>
      <trkpt lat="45.72771" lon="1.22623">
        <ele>339.6</ele>
        <time>2025-06-22T08:21:10.000Z</time>
      </trkpt>
      <trkpt lat="45.72792" lon="1.22672">
        <ele>342.1</ele>
        <time>2025-06-22T08:21:23.000Z</time>
      </trkpt>
      <trkpt lat="45.72928" lon="1.22899">
        <ele>361.2</ele>
      </trkpt>
      <trkpt lat="45.72981" lon="1.22993">
        <ele>367.5</ele>
        <time>2025-06-22T08:23:44.000Z</time>
      </trkpt>
      <trkpt lat="45.72981" lon="1.22958">
        <ele>366.9</ele>
        <time>2025-06-22T08:23:55.000Z</time>
      </trkpt>
      <trkpt lat="45.72985" lon="1.22871">
        <ele>365.6</ele>
        <time>2025-06-22T08:24:09.000Z</time>
      </trkpt>
      <trkpt lat="45.73001" lon="1.2275">
        <ele>362.1</ele>
        <time>2025-06-22T08:24:33.000Z</time>
      </trkpt>
      <trkpt lat="45.73025" lon="1.22657">
        <ele>356.2</ele>
      </trkpt>
      <trkpt lat="45.73038" lon="1.22612">
        <ele>353.7</ele>
        <time>2025-06-22T08:24:52.000Z</time>
      </trkpt>
      <trkpt lat="45.73057" lon="1.2258">
        <ele>351.8</ele>
        <time>2025-06-22T08:24:57.000Z</time>
      </trkpt>
      <trkpt lat="45.73125" lon="1.22526">
        <ele>351.4</ele>
        <time>2025-06-22T08:25:12.000Z</time>
      </trkpt>
      <trkpt lat="45.73153" lon="1.22484">
        <ele>351.7</ele>
        <time>2025-06-22T08:25:21.000Z</time>
      </trkpt>
      <trkpt lat="45.73147" lon="1.22419">
        <ele>353.2</ele>
        <time>2025-06-22T08:25:32.000Z</time>
      </trkpt>
      <trkpt lat="45.73095" lon="1.22211">
        <ele>359</ele>
        <time>2025-06-22T08:26:11.000Z</time>
      </trkpt>
      <trkpt lat="45.73089" lon="1.22169">
        <ele>361.2</ele>
        <time>2025-06-22T08:26:21.000Z</time>
      </trkpt>
      <trkpt lat="45.73225" lon="1.22165">
        <ele>366.2</ele>
        <time>2025-06-22T08:27:19.000Z</time>
      </trkpt>
      <trkpt lat="45.73239" lon="1.22142">
        <ele>367.8</ele>
        <time>2025-06-22T08:27:24.000Z</time>
      </trkpt>
      <trkpt lat="45.73282" lon="1.221">
        <ele>369.3</ele>
        <time>2025-06-22T08:27:46.000Z</time>
      </trkpt>
      <trkpt lat="45.7329" lon="1.22089">
        <ele>369.4</ele>
        <time>2025-06-22T08:27:50.000Z</time>
      </trkpt>
      <trkpt lat="45.73295" lon="1.2209">
        <ele>369.1</ele>
        <time>2025-06-22T08:38:07.000Z</time>
      </trkpt>
      <trkpt lat="45.73305" lon="1.2209">
        <ele>368.8</ele>
        <time>2025-06-22T08:38:10.000Z</time>
      </trkpt>
      <trkpt lat="45.73307" lon="1.22092">
        <ele>369.20001220703</ele>
        <time>2025-06-22T08:38:11.000Z</time>
      </trkpt>
      <trkpt lat="45.73309" lon="1.22098">
        <ele>369</ele>
        <time>2025-06-22T08:38:13.000Z</time>
      </trkpt>
      <trkpt lat="45.73317" lon="1.22103">
        <ele>368.60000610352</ele>
        <time>2025-06-22T08:38:17.000Z</time>
      </trkpt>
      <trkpt lat="45.73321" lon="1.22107">
        <ele>368.60000610352</ele>
        <time>2025-06-22T08:38:19.000Z</time>
      </trkpt>
      <trkpt lat="45.73332" lon="1.22113">
        <ele>368.20001220703</ele>
        <time>2025-06-22T08:38:24.000Z</time>
      </trkpt>
      <trkpt lat="45.73339" lon="1.22115">
        <ele>367.60000610352</ele>
        <time>2025-06-22T08:38:27.000Z</time>
      </trkpt>
      <trkpt lat="45.7334" lon="1.22118">
        <ele>367.39999389648</ele>
        <time>2025-06-22T08:38:29.000Z</time>
      </trkpt>
      <trkpt lat="45.73343" lon="1.22121">
        <ele>367.20001220703</ele>
        <time>2025-06-22T08:38:32.000Z</time>
      </trkpt>
      <trkpt lat="45.73343" lon="1.22122">
        <ele>367.20001220703</ele>
        <time>2025-06-22T08:38:33.000Z</time>
      </trkpt>
      <trkpt lat="45.73347" lon="1.22126">
        <ele>367.20001220703</ele>
        <time>2025-06-22T08:38:34.000Z</time>
      </trkpt>
      <trkpt lat="45.73347" lon="1.22128">
        <ele>367.20001220703</ele>
        <time>2025-06-22T08:38:36.000Z</time>
      </trkpt>
      <trkpt lat="45.73354" lon="1.22134">
        <ele>367.39999389648</ele>
        <time>2025-06-22T08:38:41.000Z</time>
      </trkpt>
      <trkpt lat="45.73362" lon="1.22138">
        <ele>367.39999389648</ele>
        <time>2025-06-22T08:38:45.000Z</time>
      </trkpt>
      <trkpt lat="45.73366" lon="1.22146">
        <ele>367.60000610352</ele>
        <time>2025-06-22T08:38:48.000Z</time>
      </trkpt>
      <trkpt lat="45.73366" lon="1.22149">
        <ele>367.60000610352</ele>
        <time>2025-06-22T08:38:49.000Z</time>
      </trkpt>
      <trkpt lat="45.73372" lon="1.22162">
        <ele>367.79998779297</ele>
        <time>2025-06-22T08:38:53.000Z</time>
      </trkpt>
      <trkpt lat="45.73372" lon="1.22167">
        <ele>367.79998779297</ele>
        <time>2025-06-22T08:38:54.000Z</time>
      </trkpt>
      <trkpt lat="45.73375" lon="1.22172">
        <ele>367.79998779297</ele>
        <time>2025-06-22T08:38:56.000Z</time>
      </trkpt>
      <trkpt lat="45.73379" lon="1.22174">
        <ele>368</ele>
        <time>2025-06-22T08:38:59.000Z</time>
      </trkpt>
      <trkpt lat="45.73382" lon="1.22184">
        <ele>368</ele>
        <time>2025-06-22T08:39:02.000Z</time>
      </trkpt>
      <trkpt lat="45.73385" lon="1.22189">
        <ele>368.20001220703</ele>
        <time>2025-06-22T08:39:04.000Z</time>
      </trkpt>
      <trkpt lat="45.73385" lon="1.22191">
        <ele>368.39999389648</ele>
        <time>2025-06-22T08:39:05.000Z</time>
      </trkpt>
      <trkpt lat="45.73387" lon="1.22194">
        <ele>368.39999389648</ele>
        <time>2025-06-22T08:39:06.000Z</time>
      </trkpt>
      <trkpt lat="45.73387" lon="1.22196">
        <ele>368.39999389648</ele>
        <time>2025-06-22T08:39:10.000Z</time>
      </trkpt>
      <trkpt lat="45.73388" lon="1.22197">
        <ele>368.39999389648</ele>
        <time>2025-06-22T08:39:12.000Z</time>
      </trkpt>
      <trkpt lat="45.73386" lon="1.22203">
        <ele>368.39999389648</ele>
        <time>2025-06-22T08:39:15.000Z</time>
      </trkpt>
      <trkpt lat="45.73385" lon="1.22219">
        <ele>368.20001220703</ele>
        <time>2025-06-22T08:39:20.000Z</time>
      </trkpt>
      <trkpt lat="45.73386" lon="1.22224">
        <ele>368</ele>
        <time>2025-06-22T08:39:22.000Z</time>
      </trkpt>
      <trkpt lat="45.73388" lon="1.22228">
        <ele>368</ele>
        <time>2025-06-22T08:39:23.000Z</time>
      </trkpt>
      <trkpt lat="45.73389" lon="1.22234">
        <ele>367.79998779297</ele>
        <time>2025-06-22T08:39:25.000Z</time>
      </trkpt>
      <trkpt lat="45.7339" lon="1.22235">
        <ele>367.79998779297</ele>
        <time>2025-06-22T08:39:26.000Z</time>
      </trkpt>
      <trkpt lat="45.7339" lon="1.22252">
        <ele>367.79998779297</ele>
        <time>2025-06-22T08:39:32.000Z</time>
      </trkpt>
      <trkpt lat="45.73393" lon="1.22259">
        <ele>367.79998779297</ele>
        <time>2025-06-22T08:39:34.000Z</time>
      </trkpt>
      <trkpt lat="45.73396" lon="1.22262">
        <ele>367.79998779297</ele>
        <time>2025-06-22T08:39:36.000Z</time>
      </trkpt>
      <trkpt lat="45.73399" lon="1.22263">
        <ele>367.79998779297</ele>
        <time>2025-06-22T08:39:37.000Z</time>
      </trkpt>
      <trkpt lat="45.73406" lon="1.22261">
        <ele>367.79998779297</ele>
        <time>2025-06-22T08:39:40.000Z</time>
      </trkpt>
      <trkpt lat="45.73407" lon="1.2226">
        <ele>367.79998779297</ele>
        <time>2025-06-22T08:39:42.000Z</time>
      </trkpt>
      <trkpt lat="45.73407" lon="1.22261">
        <ele>367.79998779297</ele>
        <time>2025-06-22T08:39:44.000Z</time>
      </trkpt>
      <trkpt lat="45.73414" lon="1.22258">
        <ele>367.79998779297</ele>
        <time>2025-06-22T08:39:54.000Z</time>
      </trkpt>
      <trkpt lat="45.73419" lon="1.22257">
        <ele>367.79998779297</ele>
        <time>2025-06-22T08:39:56.000Z</time>
      </trkpt>
      <trkpt lat="45.73421" lon="1.22254">
        <ele>367.79998779297</ele>
        <time>2025-06-22T08:39:58.000Z</time>
      </trkpt>
      <trkpt lat="45.73425" lon="1.22251">
        <ele>367.79998779297</ele>
        <time>2025-06-22T08:40:01.000Z</time>
      </trkpt>
      <trkpt lat="45.73424" lon="1.22249">
        <ele>368</ele>
        <time>2025-06-22T08:40:04.000Z</time>
      </trkpt>
      <trkpt lat="45.73425" lon="1.22248">
        <ele>368</ele>
        <time>2025-06-22T08:40:07.000Z</time>
      </trkpt>
      <trkpt lat="45.73421" lon="1.22238">
        <ele>367.79998779297</ele>
        <time>2025-06-22T08:40:17.000Z</time>
      </trkpt>
      <trkpt lat="45.73416" lon="1.22238">
        <ele>367.79998779297</ele>
        <time>2025-06-22T08:40:20.000Z</time>
      </trkpt>
      <trkpt lat="45.73411" lon="1.2224">
        <ele>367.39999389648</ele>
        <time>2025-06-22T08:40:29.000Z</time>
      </trkpt>
      <trkpt lat="45.73412" lon="1.22242">
        <ele>367.20001220703</ele>
        <time>2025-06-22T08:40:36.000Z</time>
      </trkpt>
      <trkpt lat="45.73407" lon="1.22248">
        <ele>367.60000610352</ele>
        <time>2025-06-22T08:40:44.000Z</time>
      </trkpt>
      <trkpt lat="45.73405" lon="1.22246">
        <ele>367.79998779297</ele>
        <time>2025-06-22T08:40:50.000Z</time>
      </trkpt>
      <trkpt lat="45.73406" lon="1.22243">
        <ele>368.20001220703</ele>
        <time>2025-06-22T08:40:57.000Z</time>
      </trkpt>
      <trkpt lat="45.73405" lon="1.22241">
        <ele>368.20001220703</ele>
        <time>2025-06-22T08:41:03.000Z</time>
      </trkpt>
      <trkpt lat="45.73405" lon="1.22239">
        <ele>368</ele>
        <time>2025-06-22T08:41:06.000Z</time>
      </trkpt>
      <trkpt lat="45.73408" lon="1.22235">
        <ele>368</ele>
        <time>2025-06-22T08:41:11.000Z</time>
      </trkpt>
      <trkpt lat="45.73409" lon="1.2223">
        <ele>368.20001220703</ele>
        <time>2025-06-22T08:41:14.000Z</time>
      </trkpt>
      <trkpt lat="45.7341" lon="1.2223">
        <ele>368.39999389648</ele>
        <time>2025-06-22T08:41:18.000Z</time>
      </trkpt>
      <trkpt lat="45.73412" lon="1.22225">
        <ele>368.39999389648</ele>
        <time>2025-06-22T08:41:25.000Z</time>
      </trkpt>
      <trkpt lat="45.73422" lon="1.22225">
        <ele>368.20001220703</ele>
        <time>2025-06-22T08:41:38.000Z</time>
      </trkpt>
      <trkpt lat="45.73421" lon="1.22227">
        <ele>368.20001220703</ele>
        <time>2025-06-22T08:41:45.000Z</time>
      </trkpt>
      <trkpt lat="45.73423" lon="1.22227">
        <ele>368</ele>
        <time>2025-06-22T08:41:56.000Z</time>
      </trkpt>
      <trkpt lat="45.73426" lon="1.2223">
        <ele>368.20001220703</ele>
        <time>2025-06-22T08:42:07.000Z</time>
      </trkpt>
      <trkpt lat="45.73431" lon="1.22233">
        <ele>368.20001220703</ele>
        <time>2025-06-22T08:42:09.000Z</time>
      </trkpt>
      <trkpt lat="45.73437" lon="1.22239">
        <ele>368.20001220703</ele>
        <time>2025-06-22T08:42:11.000Z</time>
      </trkpt>
      <trkpt lat="45.73443" lon="1.22243">
        <ele>368.20001220703</ele>
        <time>2025-06-22T08:42:13.000Z</time>
      </trkpt>
      <trkpt lat="45.73453" lon="1.22254">
        <ele>368</ele>
        <time>2025-06-22T08:42:17.000Z</time>
      </trkpt>
      <trkpt lat="45.73456" lon="1.22263">
        <ele>368.20001220703</ele>
        <time>2025-06-22T08:42:20.000Z</time>
      </trkpt>
      <trkpt lat="45.73456" lon="1.22267">
        <ele>368.39999389648</ele>
        <time>2025-06-22T08:42:21.000Z</time>
      </trkpt>
      <trkpt lat="45.73462" lon="1.22278">
        <ele>368.60000610352</ele>
        <time>2025-06-22T08:42:25.000Z</time>
      </trkpt>
      <trkpt lat="45.73465" lon="1.22279">
        <ele>368.20001220703</ele>
        <time>2025-06-22T08:42:48.000Z</time>
      </trkpt>
      <trkpt lat="45.73468" lon="1.22279">
        <ele>368.20001220703</ele>
        <time>2025-06-22T08:42:50.000Z</time>
      </trkpt>
      <trkpt lat="45.7347" lon="1.22277">
        <ele>368.20001220703</ele>
        <time>2025-06-22T08:42:52.000Z</time>
      </trkpt>
      <trkpt lat="45.73473" lon="1.22271">
        <ele>368.20001220703</ele>
        <time>2025-06-22T08:42:55.000Z</time>
      </trkpt>
      <trkpt lat="45.73473" lon="1.22266">
        <ele>368</ele>
        <time>2025-06-22T08:42:57.000Z</time>
      </trkpt>
      <trkpt lat="45.73474" lon="1.22264">
        <ele>368</ele>
        <time>2025-06-22T08:42:58.000Z</time>
      </trkpt>
      <trkpt lat="45.73474" lon="1.22256">
        <ele>367.79998779297</ele>
        <time>2025-06-22T08:43:02.000Z</time>
      </trkpt>
      <trkpt lat="45.73478" lon="1.22251">
        <ele>367.60000610352</ele>
        <time>2025-06-22T08:43:04.000Z</time>
      </trkpt>
      <trkpt lat="45.73479" lon="1.22248">
        <ele>367.60000610352</ele>
        <time>2025-06-22T08:43:06.000Z</time>
      </trkpt>
      <trkpt lat="45.73479" lon="1.22222">
        <ele>367.60000610352</ele>
        <time>2025-06-22T08:43:19.000Z</time>
      </trkpt>
      <trkpt lat="45.73477" lon="1.22205">
        <ele>367.20001220703</ele>
        <time>2025-06-22T08:43:26.000Z</time>
      </trkpt>
      <trkpt lat="45.73473" lon="1.22198">
        <ele>367.20001220703</ele>
        <time>2025-06-22T08:43:28.000Z</time>
      </trkpt>
      <trkpt lat="45.73467" lon="1.2219">
        <ele>367.20001220703</ele>
        <time>2025-06-22T08:43:31.000Z</time>
      </trkpt>
      <trkpt lat="45.73466" lon="1.22185">
        <ele>367.20001220703</ele>
        <time>2025-06-22T08:43:32.000Z</time>
      </trkpt>
      <trkpt lat="45.73461" lon="1.22171">
        <ele>367</ele>
        <time>2025-06-22T08:43:35.000Z</time>
      </trkpt>
      <trkpt lat="45.73458" lon="1.22165">
        <ele>367</ele>
        <time>2025-06-22T08:43:36.000Z</time>
      </trkpt>
      <trkpt lat="45.73457" lon="1.22159">
        <ele>366.79998779297</ele>
        <time>2025-06-22T08:43:38.000Z</time>
      </trkpt>
      <trkpt lat="45.73443" lon="1.22142">
        <ele>366.79998779297</ele>
        <time>2025-06-22T08:43:44.000Z</time>
      </trkpt>
      <trkpt lat="45.73441" lon="1.22142">
        <ele>366.79998779297</ele>
        <time>2025-06-22T08:43:45.000Z</time>
      </trkpt>
      <trkpt lat="45.73436" lon="1.22137">
        <ele>367</ele>
        <time>2025-06-22T08:43:51.000Z</time>
      </trkpt>
      <trkpt lat="45.73425" lon="1.22131">
        <ele>367.20001220703</ele>
        <time>2025-06-22T08:43:55.000Z</time>
      </trkpt>
      <trkpt lat="45.73414" lon="1.22131">
        <ele>367.20001220703</ele>
        <time>2025-06-22T08:44:01.000Z</time>
      </trkpt>
      <trkpt lat="45.73413" lon="1.2213">
        <ele>367.20001220703</ele>
        <time>2025-06-22T08:44:02.000Z</time>
      </trkpt>
      <trkpt lat="45.73405" lon="1.22127">
        <ele>367.20001220703</ele>
        <time>2025-06-22T08:44:06.000Z</time>
      </trkpt>
      <trkpt lat="45.73394" lon="1.22124">
        <ele>367.20001220703</ele>
        <time>2025-06-22T08:44:12.000Z</time>
      </trkpt>
      <trkpt lat="45.73393" lon="1.22119">
        <ele>367</ele>
        <time>2025-06-22T08:44:15.000Z</time>
      </trkpt>
      <trkpt lat="45.73395" lon="1.22116">
        <ele>366.79998779297</ele>
        <time>2025-06-22T08:44:18.000Z</time>
      </trkpt>
      <trkpt lat="45.73405" lon="1.22112">
        <ele>366.20001220703</ele>
        <time>2025-06-22T08:44:24.000Z</time>
      </trkpt>
      <trkpt lat="45.73412" lon="1.22106">
        <ele>365.79998779297</ele>
        <time>2025-06-22T08:44:30.000Z</time>
      </trkpt>
      <trkpt lat="45.73415" lon="1.22106">
        <ele>365.79998779297</ele>
        <time>2025-06-22T08:44:32.000Z</time>
      </trkpt>
      <trkpt lat="45.73426" lon="1.2212">
        <ele>366</ele>
        <time>2025-06-22T08:44:42.000Z</time>
      </trkpt>
      <trkpt lat="45.73444" lon="1.22134">
        <ele>366.39999389648</ele>
        <time>2025-06-22T08:44:50.000Z</time>
      </trkpt>
      <trkpt lat="45.73449" lon="1.22136">
        <ele>366.39999389648</ele>
        <time>2025-06-22T08:44:52.000Z</time>
      </trkpt>
      <trkpt lat="45.73451" lon="1.22138">
        <ele>366.39999389648</ele>
        <time>2025-06-22T08:44:53.000Z</time>
      </trkpt>
      <trkpt lat="45.73452" lon="1.22138">
        <ele>366.39999389648</ele>
        <time>2025-06-22T08:44:54.000Z</time>
      </trkpt>
      <trkpt lat="45.73458" lon="1.22145">
        <ele>366.39999389648</ele>
        <time>2025-06-22T08:44:56.000Z</time>
      </trkpt>
      <trkpt lat="45.73465" lon="1.22149">
        <ele>366.39999389648</ele>
        <time>2025-06-22T08:44:59.000Z</time>
      </trkpt>
      <trkpt lat="45.73474" lon="1.22157">
        <ele>366.20001220703</ele>
        <time>2025-06-22T08:45:05.000Z</time>
      </trkpt>
      <trkpt lat="45.73481" lon="1.22169">
        <ele>366.20001220703</ele>
        <time>2025-06-22T08:45:09.000Z</time>
      </trkpt>
      <trkpt lat="45.73487" lon="1.22177">
        <ele>366.20001220703</ele>
        <time>2025-06-22T08:45:11.000Z</time>
      </trkpt>
      <trkpt lat="45.73492" lon="1.22182">
        <ele>366.20001220703</ele>
        <time>2025-06-22T08:45:13.000Z</time>
      </trkpt>
      <trkpt lat="45.73496" lon="1.22188">
        <ele>366</ele>
        <time>2025-06-22T08:45:15.000Z</time>
      </trkpt>
      <trkpt lat="45.73501" lon="1.22202">
        <ele>365.60000610352</ele>
        <time>2025-06-22T08:45:18.000Z</time>
      </trkpt>
      <trkpt lat="45.73506" lon="1.2221">
        <ele>365.60000610352</ele>
        <time>2025-06-22T08:45:21.000Z</time>
      </trkpt>
      <trkpt lat="45.7351" lon="1.2221">
        <ele>365.60000610352</ele>
        <time>2025-06-22T08:45:23.000Z</time>
      </trkpt>
      <trkpt lat="45.73517" lon="1.22207">
        <ele>365.60000610352</ele>
        <time>2025-06-22T08:45:27.000Z</time>
      </trkpt>
      <trkpt lat="45.73519" lon="1.22205">
        <ele>365.39999389648</ele>
        <time>2025-06-22T08:45:28.000Z</time>
      </trkpt>
      <trkpt lat="45.73521" lon="1.22201">
        <ele>365.39999389648</ele>
        <time>2025-06-22T08:45:29.000Z</time>
      </trkpt>
      <trkpt lat="45.73525" lon="1.22201">
        <ele>365.39999389648</ele>
        <time>2025-06-22T08:45:31.000Z</time>
      </trkpt>
      <trkpt lat="45.73526" lon="1.22202">
        <ele>365.20001220703</ele>
        <time>2025-06-22T08:45:32.000Z</time>
      </trkpt>
      <trkpt lat="45.73533" lon="1.22199">
        <ele>364.79998779297</ele>
        <time>2025-06-22T08:45:35.000Z</time>
      </trkpt>
      <trkpt lat="45.73538" lon="1.22193">
        <ele>364.60000610352</ele>
        <time>2025-06-22T08:45:37.000Z</time>
      </trkpt>
      <trkpt lat="45.73539" lon="1.22193">
        <ele>364</ele>
        <time>2025-06-22T08:45:38.000Z</time>
      </trkpt>
      <trkpt lat="45.73542" lon="1.22183">
        <ele>363.39999389648</ele>
        <time>2025-06-22T08:45:41.000Z</time>
      </trkpt>
      <trkpt lat="45.73545" lon="1.22177">
        <ele>363.20001220703</ele>
        <time>2025-06-22T08:45:43.000Z</time>
      </trkpt>
      <trkpt lat="45.73545" lon="1.22173">
        <ele>362.60000610352</ele>
        <time>2025-06-22T08:45:45.000Z</time>
      </trkpt>
      <trkpt lat="45.73547" lon="1.22168">
        <ele>362.60000610352</ele>
        <time>2025-06-22T08:45:47.000Z</time>
      </trkpt>
      <trkpt lat="45.73549" lon="1.22154">
        <ele>362</ele>
        <time>2025-06-22T08:45:51.000Z</time>
      </trkpt>
      <trkpt lat="45.73551" lon="1.22152">
        <ele>362</ele>
        <time>2025-06-22T08:45:52.000Z</time>
      </trkpt>
      <trkpt lat="45.73553" lon="1.22146">
        <ele>361.79998779297</ele>
        <time>2025-06-22T08:45:54.000Z</time>
      </trkpt>
      <trkpt lat="45.73555" lon="1.22143">
        <ele>361.60000610352</ele>
        <time>2025-06-22T08:45:55.000Z</time>
      </trkpt>
      <trkpt lat="45.73557" lon="1.22136">
        <ele>361</ele>
        <time>2025-06-22T08:45:57.000Z</time>
      </trkpt>
      <trkpt lat="45.73558" lon="1.22135">
        <ele>360.20001220703</ele>
        <time>2025-06-22T08:45:58.000Z</time>
      </trkpt>
      <trkpt lat="45.7356" lon="1.22129">
        <ele>359.39999389648</ele>
        <time>2025-06-22T08:46:00.000Z</time>
      </trkpt>
      <trkpt lat="45.7356" lon="1.22125">
        <ele>358.60000610352</ele>
        <time>2025-06-22T08:46:02.000Z</time>
      </trkpt>
      <trkpt lat="45.73562" lon="1.22119">
        <ele>358</ele>
        <time>2025-06-22T08:46:04.000Z</time>
      </trkpt>
      <trkpt lat="45.73563" lon="1.22119">
        <ele>357.60000610352</ele>
        <time>2025-06-22T08:46:06.000Z</time>
      </trkpt>
      <trkpt lat="45.73565" lon="1.22112">
        <ele>356.79998779297</ele>
        <time>2025-06-22T08:46:09.000Z</time>
      </trkpt>
      <trkpt lat="45.73566" lon="1.22112">
        <ele>355.60000610352</ele>
        <time>2025-06-22T08:46:12.000Z</time>
      </trkpt>
      <trkpt lat="45.73569" lon="1.22108">
        <ele>354.79998779297</ele>
        <time>2025-06-22T08:46:14.000Z</time>
      </trkpt>
      <trkpt lat="45.73579" lon="1.22087">
        <ele>354.39999389648</ele>
        <time>2025-06-22T08:46:17.000Z</time>
      </trkpt>
      <trkpt lat="45.73579" lon="1.22081">
        <ele>353.39999389648</ele>
        <time>2025-06-22T08:46:19.000Z</time>
      </trkpt>
      <trkpt lat="45.73589" lon="1.22077">
        <ele>352.79998779297</ele>
        <time>2025-06-22T08:46:22.000Z</time>
      </trkpt>
      <trkpt lat="45.73597" lon="1.22077">
        <ele>352.39999389648</ele>
        <time>2025-06-22T08:46:25.000Z</time>
      </trkpt>
      <trkpt lat="45.73599" lon="1.2208">
        <ele>352</ele>
        <time>2025-06-22T08:46:27.000Z</time>
      </trkpt>
      <trkpt lat="45.73602" lon="1.22082">
        <ele>352</ele>
        <time>2025-06-22T08:46:28.000Z</time>
      </trkpt>
      <trkpt lat="45.73603" lon="1.22085">
        <ele>351.60000610352</ele>
        <time>2025-06-22T08:46:29.000Z</time>
      </trkpt>
      <trkpt lat="45.73605" lon="1.22087">
        <ele>351.60000610352</ele>
        <time>2025-06-22T08:46:30.000Z</time>
      </trkpt>
      <trkpt lat="45.73606" lon="1.2209">
        <ele>351.39999389648</ele>
        <time>2025-06-22T08:46:31.000Z</time>
      </trkpt>
      <trkpt lat="45.73606" lon="1.22097">
        <ele>351.39999389648</ele>
        <time>2025-06-22T08:46:35.000Z</time>
      </trkpt>
      <trkpt lat="45.73607" lon="1.221">
        <ele>351.39999389648</ele>
        <time>2025-06-22T08:46:36.000Z</time>
      </trkpt>
      <trkpt lat="45.73607" lon="1.22103">
        <ele>351.60000610352</ele>
        <time>2025-06-22T08:46:37.000Z</time>
      </trkpt>
      <trkpt lat="45.73604" lon="1.22107">
        <ele>351.79998779297</ele>
        <time>2025-06-22T08:46:40.000Z</time>
      </trkpt>
      <trkpt lat="45.73604" lon="1.22108">
        <ele>352</ele>
        <time>2025-06-22T08:46:41.000Z</time>
      </trkpt>
      <trkpt lat="45.73599" lon="1.22109">
        <ele>352.39999389648</ele>
        <time>2025-06-22T08:46:44.000Z</time>
      </trkpt>
      <trkpt lat="45.73595" lon="1.22117">
        <ele>353.20001220703</ele>
        <time>2025-06-22T08:46:47.000Z</time>
      </trkpt>
      <trkpt lat="45.73595" lon="1.2212">
        <ele>353.20001220703</ele>
        <time>2025-06-22T08:46:48.000Z</time>
      </trkpt>
      <trkpt lat="45.73593" lon="1.22123">
        <ele>353.39999389648</ele>
        <time>2025-06-22T08:46:49.000Z</time>
      </trkpt>
      <trkpt lat="45.73593" lon="1.22128">
        <ele>353.79998779297</ele>
        <time>2025-06-22T08:46:51.000Z</time>
      </trkpt>
      <trkpt lat="45.73596" lon="1.22134">
        <ele>354.60000610352</ele>
        <time>2025-06-22T08:46:55.000Z</time>
      </trkpt>
      <trkpt lat="45.73596" lon="1.2214">
        <ele>354.79998779297</ele>
        <time>2025-06-22T08:46:57.000Z</time>
      </trkpt>
      <trkpt lat="45.73597" lon="1.22142">
        <ele>354.79998779297</ele>
        <time>2025-06-22T08:46:58.000Z</time>
      </trkpt>
      <trkpt lat="45.73598" lon="1.22142">
        <ele>355</ele>
        <time>2025-06-22T08:47:01.000Z</time>
      </trkpt>
      <trkpt lat="45.73597" lon="1.22146">
        <ele>355</ele>
        <time>2025-06-22T08:47:03.000Z</time>
      </trkpt>
      <trkpt lat="45.73598" lon="1.22146">
        <ele>355.20001220703</ele>
        <time>2025-06-22T08:47:05.000Z</time>
      </trkpt>
      <trkpt lat="45.73601" lon="1.22163">
        <ele>355.39999389648</ele>
        <time>2025-06-22T08:47:08.000Z</time>
      </trkpt>
      <trkpt lat="45.73597" lon="1.22178">
        <ele>355.79998779297</ele>
        <time>2025-06-22T08:47:12.000Z</time>
      </trkpt>
      <trkpt lat="45.73597" lon="1.22185">
        <ele>356</ele>
        <time>2025-06-22T08:47:13.000Z</time>
      </trkpt>
      <trkpt lat="45.73594" lon="1.22192">
        <ele>356.60000610352</ele>
        <time>2025-06-22T08:47:17.000Z</time>
      </trkpt>
      <trkpt lat="45.73599" lon="1.2221">
        <ele>357</ele>
        <time>2025-06-22T08:47:22.000Z</time>
      </trkpt>
      <trkpt lat="45.73599" lon="1.22217">
        <ele>357.39999389648</ele>
        <time>2025-06-22T08:47:24.000Z</time>
      </trkpt>
      <trkpt lat="45.736" lon="1.2222">
        <ele>357.79998779297</ele>
        <time>2025-06-22T08:47:27.000Z</time>
      </trkpt>
      <trkpt lat="45.73598" lon="1.22225">
        <ele>358</ele>
        <time>2025-06-22T08:47:30.000Z</time>
      </trkpt>
      <trkpt lat="45.73598" lon="1.22233">
        <ele>358.39999389648</ele>
        <time>2025-06-22T08:47:36.000Z</time>
      </trkpt>
      <trkpt lat="45.736" lon="1.22246">
        <ele>358.60000610352</ele>
        <time>2025-06-22T08:47:39.000Z</time>
      </trkpt>
      <trkpt lat="45.73602" lon="1.22249">
        <ele>358.60000610352</ele>
        <time>2025-06-22T08:47:40.000Z</time>
      </trkpt>
      <trkpt lat="45.73603" lon="1.22254">
        <ele>358.60000610352</ele>
        <time>2025-06-22T08:47:41.000Z</time>
      </trkpt>
      <trkpt lat="45.73612" lon="1.22273">
        <ele>358.39999389648</ele>
        <time>2025-06-22T08:47:46.000Z</time>
      </trkpt>
      <trkpt lat="45.73612" lon="1.22277">
        <ele>358.60000610352</ele>
        <time>2025-06-22T08:47:47.000Z</time>
      </trkpt>
      <trkpt lat="45.73613" lon="1.22281">
        <ele>358.60000610352</ele>
        <time>2025-06-22T08:47:48.000Z</time>
      </trkpt>
      <trkpt lat="45.73613" lon="1.22299">
        <ele>359</ele>
        <time>2025-06-22T08:47:55.000Z</time>
      </trkpt>
      <trkpt lat="45.73612" lon="1.22303">
        <ele>359</ele>
        <time>2025-06-22T08:47:56.000Z</time>
      </trkpt>
      <trkpt lat="45.73612" lon="1.22307">
        <ele>359.20001220703</ele>
        <time>2025-06-22T08:47:57.000Z</time>
      </trkpt>
      <trkpt lat="45.73622" lon="1.22321">
        <ele>359.39999389648</ele>
        <time>2025-06-22T08:48:01.000Z</time>
      </trkpt>
      <trkpt lat="45.73625" lon="1.22334">
        <ele>359.39999389648</ele>
        <time>2025-06-22T08:48:04.000Z</time>
      </trkpt>
      <trkpt lat="45.73627" lon="1.22338">
        <ele>359.39999389648</ele>
        <time>2025-06-22T08:48:05.000Z</time>
      </trkpt>
      <trkpt lat="45.7363" lon="1.2234">
        <ele>359.39999389648</ele>
        <time>2025-06-22T08:48:06.000Z</time>
      </trkpt>
      <trkpt lat="45.73636" lon="1.2234">
        <ele>359.20001220703</ele>
        <time>2025-06-22T08:48:08.000Z</time>
      </trkpt>
      <trkpt lat="45.7364" lon="1.22341">
        <ele>359.20001220703</ele>
        <time>2025-06-22T08:48:10.000Z</time>
      </trkpt>
      <trkpt lat="45.73648" lon="1.22341">
        <ele>359</ele>
        <time>2025-06-22T08:48:13.000Z</time>
      </trkpt>
      <trkpt lat="45.73654" lon="1.22346">
        <ele>358.39999389648</ele>
        <time>2025-06-22T08:48:15.000Z</time>
      </trkpt>
      <trkpt lat="45.73661" lon="1.22349">
        <ele>358</ele>
        <time>2025-06-22T08:48:17.000Z</time>
      </trkpt>
      <trkpt lat="45.73663" lon="1.22348">
        <ele>357.79998779297</ele>
        <time>2025-06-22T08:48:18.000Z</time>
      </trkpt>
      <trkpt lat="45.73668" lon="1.22349">
        <ele>357.39999389648</ele>
        <time>2025-06-22T08:48:20.000Z</time>
      </trkpt>
      <trkpt lat="45.7367" lon="1.22351">
        <ele>357.39999389648</ele>
        <time>2025-06-22T08:48:21.000Z</time>
      </trkpt>
      <trkpt lat="45.73672" lon="1.22351">
        <ele>357.20001220703</ele>
        <time>2025-06-22T08:48:23.000Z</time>
      </trkpt>
      <trkpt lat="45.73679" lon="1.22354">
        <ele>357.20001220703</ele>
        <time>2025-06-22T08:48:26.000Z</time>
      </trkpt>
      <trkpt lat="45.73692" lon="1.22364">
        <ele>357.60000610352</ele>
        <time>2025-06-22T08:48:31.000Z</time>
      </trkpt>
      <trkpt lat="45.737" lon="1.22373">
        <ele>357.79998779297</ele>
        <time>2025-06-22T08:48:35.000Z</time>
      </trkpt>
      <trkpt lat="45.73711" lon="1.22395">
        <ele>358.20001220703</ele>
        <time>2025-06-22T08:48:41.000Z</time>
      </trkpt>
      <trkpt lat="45.73715" lon="1.22399">
        <ele>358.60000610352</ele>
        <time>2025-06-22T08:48:43.000Z</time>
      </trkpt>
      <trkpt lat="45.73721" lon="1.22401">
        <ele>359</ele>
        <time>2025-06-22T08:48:46.000Z</time>
      </trkpt>
      <trkpt lat="45.73727" lon="1.22406">
        <ele>359</ele>
        <time>2025-06-22T08:48:48.000Z</time>
      </trkpt>
      <trkpt lat="45.73731" lon="1.22412">
        <ele>359</ele>
        <time>2025-06-22T08:48:50.000Z</time>
      </trkpt>
      <trkpt lat="45.73734" lon="1.22414">
        <ele>359</ele>
        <time>2025-06-22T08:48:51.000Z</time>
      </trkpt>
      <trkpt lat="45.73737" lon="1.22421">
        <ele>359.20001220703</ele>
        <time>2025-06-22T08:48:53.000Z</time>
      </trkpt>
      <trkpt lat="45.73742" lon="1.22427">
        <ele>359.39999389648</ele>
        <time>2025-06-22T08:48:55.000Z</time>
      </trkpt>
      <trkpt lat="45.73744" lon="1.22428">
        <ele>359.60000610352</ele>
        <time>2025-06-22T08:48:56.000Z</time>
      </trkpt>
      <trkpt lat="45.73747" lon="1.22432">
        <ele>359.79998779297</ele>
        <time>2025-06-22T08:48:58.000Z</time>
      </trkpt>
      <trkpt lat="45.73748" lon="1.22435">
        <ele>359.79998779297</ele>
        <time>2025-06-22T08:48:59.000Z</time>
      </trkpt>
      <trkpt lat="45.73752" lon="1.22439">
        <ele>359.79998779297</ele>
        <time>2025-06-22T08:49:01.000Z</time>
      </trkpt>
      <trkpt lat="45.73761" lon="1.2244">
        <ele>360.20001220703</ele>
        <time>2025-06-22T08:49:07.000Z</time>
      </trkpt>
      <trkpt lat="45.73787" lon="1.22442">
        <ele>360.1</ele>
        <time>2025-06-22T08:49:14.000Z</time>
      </trkpt>
      <trkpt lat="45.73876" lon="1.22461">
        <ele>355.8</ele>
        <time>2025-06-22T08:49:36.000Z</time>
      </trkpt>
      <trkpt lat="45.73907" lon="1.22422">
        <ele>351.5</ele>
        <time>2025-06-22T08:49:45.000Z</time>
      </trkpt>
      <trkpt lat="45.73922" lon="1.22421">
        <ele>350.8</ele>
        <time>2025-06-22T08:49:49.000Z</time>
      </trkpt>
      <trkpt lat="45.73975" lon="1.22388">
        <ele>349.8</ele>
        <time>2025-06-22T08:49:57.000Z</time>
      </trkpt>
      <trkpt lat="45.74004" lon="1.22381">
        <ele>347.4</ele>
        <time>2025-06-22T08:50:02.000Z</time>
      </trkpt>
      <trkpt lat="45.74032" lon="1.22388">
        <ele>345.5</ele>
        <time>2025-06-22T08:50:12.000Z</time>
      </trkpt>
      <trkpt lat="45.74128" lon="1.22358">
        <ele>336.7</ele>
        <time>2025-06-22T08:50:35.000Z</time>
      </trkpt>
      <trkpt lat="45.74176" lon="1.22315">
        <ele>330.2</ele>
        <time>2025-06-22T08:50:55.000Z</time>
      </trkpt>
      <trkpt lat="45.74218" lon="1.2225">
        <ele>319.4</ele>
        <time>2025-06-22T08:51:36.000Z</time>
      </trkpt>
      <trkpt lat="45.74249" lon="1.22169">
        <ele>307.5</ele>
        <time>2025-06-22T08:51:55.000Z</time>
      </trkpt>
      <trkpt lat="45.74278" lon="1.2211">
        <ele>299</ele>
        <time>2025-06-22T08:52:13.000Z</time>
      </trkpt>
      <trkpt lat="45.74287" lon="1.22108">
        <ele>298.3</ele>
        <time>2025-06-22T08:52:16.000Z</time>
      </trkpt>
      <trkpt lat="45.74293" lon="1.22109">
        <ele>297.9</ele>
        <time>2025-06-22T08:52:18.000Z</time>
      </trkpt>
      <trkpt lat="45.74294" lon="1.22105">
        <ele>297.9</ele>
        <time>2025-06-22T08:52:32.000Z</time>
      </trkpt>
      <trkpt lat="45.74297" lon="1.2209">
        <ele>297.9</ele>
        <time>2025-06-22T08:52:59.000Z</time>
      </trkpt>
      <trkpt lat="45.74301" lon="1.22096">
        <ele>294.60000610352</ele>
        <time>2025-06-22T08:53:07.000Z</time>
      </trkpt>
      <trkpt lat="45.74311" lon="1.22103">
        <ele>294</ele>
        <time>2025-06-22T08:53:10.000Z</time>
      </trkpt>
      <trkpt lat="45.74333" lon="1.22116">
        <ele>293.60000610352</ele>
        <time>2025-06-22T08:53:16.000Z</time>
      </trkpt>
      <trkpt lat="45.74342" lon="1.22123">
        <ele>293.39999389648</ele>
        <time>2025-06-22T08:53:19.000Z</time>
      </trkpt>
      <trkpt lat="45.74348" lon="1.22129">
        <ele>292.79998779297</ele>
        <time>2025-06-22T08:53:21.000Z</time>
      </trkpt>
      <trkpt lat="45.74364" lon="1.22137">
        <ele>290.79998779297</ele>
        <time>2025-06-22T08:53:26.000Z</time>
      </trkpt>
      <trkpt lat="45.74368" lon="1.2214">
        <ele>290.60000610352</ele>
        <time>2025-06-22T08:53:27.000Z</time>
      </trkpt>
      <trkpt lat="45.74376" lon="1.22148">
        <ele>290</ele>
        <time>2025-06-22T08:53:29.000Z</time>
      </trkpt>
      <trkpt lat="45.7439" lon="1.22157">
        <ele>289.60000610352</ele>
        <time>2025-06-22T08:53:32.000Z</time>
      </trkpt>
      <trkpt lat="45.74401" lon="1.22163">
        <ele>289.20001220703</ele>
        <time>2025-06-22T08:53:34.000Z</time>
      </trkpt>
      <trkpt lat="45.74413" lon="1.22167">
        <ele>289.20001220703</ele>
        <time>2025-06-22T08:53:37.000Z</time>
      </trkpt>
      <trkpt lat="45.74418" lon="1.2217">
        <ele>289.20001220703</ele>
        <time>2025-06-22T08:53:39.000Z</time>
      </trkpt>
      <trkpt lat="45.74435" lon="1.22187">
        <ele>289.20001220703</ele>
        <time>2025-06-22T08:53:43.000Z</time>
      </trkpt>
      <trkpt lat="45.74441" lon="1.22192">
        <ele>289</ele>
        <time>2025-06-22T08:53:44.000Z</time>
      </trkpt>
      <trkpt lat="45.74447" lon="1.222">
        <ele>289</ele>
        <time>2025-06-22T08:53:46.000Z</time>
      </trkpt>
      <trkpt lat="45.74449" lon="1.22204">
        <ele>289</ele>
        <time>2025-06-22T08:53:47.000Z</time>
      </trkpt>
      <trkpt lat="45.74461" lon="1.22218">
        <ele>288.60000610352</ele>
        <time>2025-06-22T08:53:51.000Z</time>
      </trkpt>
      <trkpt lat="45.74463" lon="1.22222">
        <ele>288.39999389648</ele>
        <time>2025-06-22T08:53:52.000Z</time>
      </trkpt>
      <trkpt lat="45.7447" lon="1.22232">
        <ele>287.60000610352</ele>
        <time>2025-06-22T08:53:54.000Z</time>
      </trkpt>
      <trkpt lat="45.7448" lon="1.22238">
        <ele>286.39999389648</ele>
        <time>2025-06-22T08:53:57.000Z</time>
      </trkpt>
      <trkpt lat="45.74486" lon="1.22244">
        <ele>285.79998779297</ele>
        <time>2025-06-22T08:53:59.000Z</time>
      </trkpt>
      <trkpt lat="45.74486" lon="1.22246">
        <ele>285.60000610352</ele>
        <time>2025-06-22T08:54:00.000Z</time>
      </trkpt>
      <trkpt lat="45.74494" lon="1.22253">
        <ele>284.79998779297</ele>
        <time>2025-06-22T08:54:03.000Z</time>
      </trkpt>
      <trkpt lat="45.74521" lon="1.22266">
        <ele>284</ele>
        <time>2025-06-22T08:54:13.000Z</time>
      </trkpt>
      <trkpt lat="45.74529" lon="1.22272">
        <ele>284</ele>
        <time>2025-06-22T08:54:15.000Z</time>
      </trkpt>
      <trkpt lat="45.74536" lon="1.22279">
        <ele>283.79998779297</ele>
        <time>2025-06-22T08:54:17.000Z</time>
      </trkpt>
      <trkpt lat="45.74557" lon="1.22295">
        <ele>283.60000610352</ele>
        <time>2025-06-22T08:54:21.000Z</time>
      </trkpt>
      <trkpt lat="45.74563" lon="1.22298">
        <ele>282.60000610352</ele>
        <time>2025-06-22T08:54:24.000Z</time>
      </trkpt>
      <trkpt lat="45.74566" lon="1.22297">
        <ele>282.20001220703</ele>
        <time>2025-06-22T08:54:26.000Z</time>
      </trkpt>
      <trkpt lat="45.74567" lon="1.22295">
        <ele>282.20001220703</ele>
        <time>2025-06-22T08:54:27.000Z</time>
      </trkpt>
      <trkpt lat="45.7457" lon="1.22295">
        <ele>282.20001220703</ele>
        <time>2025-06-22T08:54:28.000Z</time>
      </trkpt>
      <trkpt lat="45.74571" lon="1.22292">
        <ele>282.39999389648</ele>
        <time>2025-06-22T08:54:29.000Z</time>
      </trkpt>
      <trkpt lat="45.74576" lon="1.22293">
        <ele>282.60000610352</ele>
        <time>2025-06-22T08:54:31.000Z</time>
      </trkpt>
      <trkpt lat="45.7458" lon="1.22292">
        <ele>282.60000610352</ele>
        <time>2025-06-22T08:54:32.000Z</time>
      </trkpt>
      <trkpt lat="45.74587" lon="1.22295">
        <ele>283.79998779297</ele>
        <time>2025-06-22T08:54:36.000Z</time>
      </trkpt>
      <trkpt lat="45.74589" lon="1.22299">
        <ele>284</ele>
        <time>2025-06-22T08:54:39.000Z</time>
      </trkpt>
      <trkpt lat="45.74588" lon="1.22302">
        <ele>284</ele>
        <time>2025-06-22T08:54:40.000Z</time>
      </trkpt>
      <trkpt lat="45.7459" lon="1.22309">
        <ele>283</ele>
        <time>2025-06-22T08:54:44.000Z</time>
      </trkpt>
      <trkpt lat="45.74606" lon="1.22329">
        <ele>280.60000610352</ele>
        <time>2025-06-22T08:54:50.000Z</time>
      </trkpt>
      <trkpt lat="45.74614" lon="1.22334">
        <ele>279.20001220703</ele>
        <time>2025-06-22T08:54:53.000Z</time>
      </trkpt>
      <trkpt lat="45.74617" lon="1.22335">
        <ele>279</ele>
        <time>2025-06-22T08:54:54.000Z</time>
      </trkpt>
      <trkpt lat="45.74619" lon="1.22337">
        <ele>279</ele>
        <time>2025-06-22T08:54:55.000Z</time>
      </trkpt>
      <trkpt lat="45.7462" lon="1.22337">
        <ele>278.79998779297</ele>
        <time>2025-06-22T08:54:56.000Z</time>
      </trkpt>
      <trkpt lat="45.74625" lon="1.22342">
        <ele>278.60000610352</ele>
        <time>2025-06-22T08:54:58.000Z</time>
      </trkpt>
      <trkpt lat="45.74629" lon="1.22344">
        <ele>278.60000610352</ele>
        <time>2025-06-22T08:54:59.000Z</time>
      </trkpt>
      <trkpt lat="45.74631" lon="1.22346">
        <ele>278.39999389648</ele>
        <time>2025-06-22T08:55:02.000Z</time>
      </trkpt>
      <trkpt lat="45.74635" lon="1.22348">
        <ele>278.39999389648</ele>
        <time>2025-06-22T08:55:04.000Z</time>
      </trkpt>
      <trkpt lat="45.74643" lon="1.22356">
        <ele>278.39999389648</ele>
        <time>2025-06-22T08:55:06.000Z</time>
      </trkpt>
      <trkpt lat="45.74649" lon="1.22365">
        <ele>278.20001220703</ele>
        <time>2025-06-22T08:55:09.000Z</time>
      </trkpt>
      <trkpt lat="45.74652" lon="1.22368">
        <ele>278.20001220703</ele>
        <time>2025-06-22T08:55:10.000Z</time>
      </trkpt>
      <trkpt lat="45.74653" lon="1.22371">
        <ele>278.20001220703</ele>
        <time>2025-06-22T08:55:11.000Z</time>
      </trkpt>
      <trkpt lat="45.74658" lon="1.22375">
        <ele>278</ele>
        <time>2025-06-22T08:55:14.000Z</time>
      </trkpt>
      <trkpt lat="45.74661" lon="1.22375">
        <ele>278</ele>
        <time>2025-06-22T08:55:18.000Z</time>
      </trkpt>
      <trkpt lat="45.74664" lon="1.22379">
        <ele>277.79998779297</ele>
        <time>2025-06-22T08:55:20.000Z</time>
      </trkpt>
      <trkpt lat="45.74664" lon="1.22382">
        <ele>277.79998779297</ele>
        <time>2025-06-22T08:55:22.000Z</time>
      </trkpt>
      <trkpt lat="45.74689" lon="1.22396">
        <ele>275.20001220703</ele>
        <time>2025-06-22T08:55:29.000Z</time>
      </trkpt>
      <trkpt lat="45.74695" lon="1.22398">
        <ele>274.39999389648</ele>
        <time>2025-06-22T08:55:31.000Z</time>
      </trkpt>
      <trkpt lat="45.74702" lon="1.22399">
        <ele>274.20001220703</ele>
        <time>2025-06-22T08:55:32.000Z</time>
      </trkpt>
      <trkpt lat="45.74705" lon="1.22396">
        <ele>274</ele>
        <time>2025-06-22T08:55:33.000Z</time>
      </trkpt>
      <trkpt lat="45.74711" lon="1.22398">
        <ele>273.79998779297</ele>
        <time>2025-06-22T08:55:35.000Z</time>
      </trkpt>
      <trkpt lat="45.74714" lon="1.224">
        <ele>273.79998779297</ele>
        <time>2025-06-22T08:55:36.000Z</time>
      </trkpt>
      <trkpt lat="45.74717" lon="1.22398">
        <ele>274</ele>
        <time>2025-06-22T08:55:38.000Z</time>
      </trkpt>
      <trkpt lat="45.74737" lon="1.22406">
        <ele>275.79998779297</ele>
        <time>2025-06-22T08:55:48.000Z</time>
      </trkpt>
      <trkpt lat="45.74742" lon="1.22407">
        <ele>276.79998779297</ele>
        <time>2025-06-22T08:55:52.000Z</time>
      </trkpt>
      <trkpt lat="45.74743" lon="1.22408">
        <ele>276.79998779297</ele>
        <time>2025-06-22T08:55:53.000Z</time>
      </trkpt>
      <trkpt lat="45.74748" lon="1.22409">
        <ele>277.20001220703</ele>
        <time>2025-06-22T08:55:55.000Z</time>
      </trkpt>
      <trkpt lat="45.74756" lon="1.22412">
        <ele>277.39999389648</ele>
        <time>2025-06-22T08:55:57.000Z</time>
      </trkpt>
      <trkpt lat="45.74762" lon="1.22412">
        <ele>277.60000610352</ele>
        <time>2025-06-22T08:55:59.000Z</time>
      </trkpt>
      <trkpt lat="45.74764" lon="1.22411">
        <ele>278.20001220703</ele>
        <time>2025-06-22T08:56:01.000Z</time>
      </trkpt>
      <trkpt lat="45.74763" lon="1.22413">
        <ele>278.60000610352</ele>
        <time>2025-06-22T08:56:33.000Z</time>
      </trkpt>
      <trkpt lat="45.74764" lon="1.22413">
        <ele>277.20001220703</ele>
        <time>2025-06-22T08:56:39.000Z</time>
      </trkpt>
      <trkpt lat="45.74764" lon="1.22422">
        <ele>275.20001220703</ele>
        <time>2025-06-22T08:56:43.000Z</time>
      </trkpt>
      <trkpt lat="45.74771" lon="1.2243">
        <ele>273.39999389648</ele>
        <time>2025-06-22T08:56:46.000Z</time>
      </trkpt>
      <trkpt lat="45.74772" lon="1.22432">
        <ele>272.79998779297</ele>
        <time>2025-06-22T08:56:47.000Z</time>
      </trkpt>
      <trkpt lat="45.7478" lon="1.2244">
        <ele>271.20001220703</ele>
        <time>2025-06-22T08:56:50.000Z</time>
      </trkpt>
      <trkpt lat="45.74782" lon="1.22443">
        <ele>271</ele>
        <time>2025-06-22T08:56:51.000Z</time>
      </trkpt>
      <trkpt lat="45.74787" lon="1.22448">
        <ele>269.79998779297</ele>
        <time>2025-06-22T08:56:53.000Z</time>
      </trkpt>
      <trkpt lat="45.7479" lon="1.2245">
        <ele>269.60000610352</ele>
        <time>2025-06-22T08:56:54.000Z</time>
      </trkpt>
      <trkpt lat="45.74801" lon="1.22465">
        <ele>268.79998779297</ele>
        <time>2025-06-22T08:56:58.000Z</time>
      </trkpt>
      <trkpt lat="45.74806" lon="1.22473">
        <ele>267.79998779297</ele>
        <time>2025-06-22T08:57:01.000Z</time>
      </trkpt>
      <trkpt lat="45.74816" lon="1.22483">
        <ele>267.39999389648</ele>
        <time>2025-06-22T08:57:04.000Z</time>
      </trkpt>
      <trkpt lat="45.7482" lon="1.22488">
        <ele>267.20001220703</ele>
        <time>2025-06-22T08:57:06.000Z</time>
      </trkpt>
      <trkpt lat="45.74823" lon="1.22495">
        <ele>267</ele>
        <time>2025-06-22T08:57:09.000Z</time>
      </trkpt>
      <trkpt lat="45.74827" lon="1.22499">
        <ele>267</ele>
        <time>2025-06-22T08:57:11.000Z</time>
      </trkpt>
      <trkpt lat="45.74827" lon="1.225">
        <ele>267</ele>
        <time>2025-06-22T08:57:12.000Z</time>
      </trkpt>
      <trkpt lat="45.7483" lon="1.22502">
        <ele>267.20001220703</ele>
        <time>2025-06-22T08:57:14.000Z</time>
      </trkpt>
      <trkpt lat="45.7485" lon="1.22525">
        <ele>267.60000610352</ele>
        <time>2025-06-22T08:57:25.000Z</time>
      </trkpt>
      <trkpt lat="45.74853" lon="1.2253">
        <ele>267.20001220703</ele>
        <time>2025-06-22T08:57:27.000Z</time>
      </trkpt>
      <trkpt lat="45.74854" lon="1.22537">
        <ele>267</ele>
        <time>2025-06-22T08:57:29.000Z</time>
      </trkpt>
      <trkpt lat="45.74857" lon="1.22542">
        <ele>266.39999389648</ele>
        <time>2025-06-22T08:57:32.000Z</time>
      </trkpt>
      <trkpt lat="45.74863" lon="1.22549">
        <ele>264.79998779297</ele>
        <time>2025-06-22T08:57:37.000Z</time>
      </trkpt>
      <trkpt lat="45.74864" lon="1.22549">
        <ele>264.79998779297</ele>
        <time>2025-06-22T08:57:38.000Z</time>
      </trkpt>
      <trkpt lat="45.74864" lon="1.22551">
        <ele>264.79998779297</ele>
        <time>2025-06-22T08:57:39.000Z</time>
      </trkpt>
      <trkpt lat="45.74869" lon="1.2256">
        <ele>264.60000610352</ele>
        <time>2025-06-22T08:57:42.000Z</time>
      </trkpt>
      <trkpt lat="45.74872" lon="1.22563">
        <ele>264.60000610352</ele>
        <time>2025-06-22T08:57:44.000Z</time>
      </trkpt>
      <trkpt lat="45.74873" lon="1.22563">
        <ele>264.60000610352</ele>
        <time>2025-06-22T08:57:46.000Z</time>
      </trkpt>
      <trkpt lat="45.74878" lon="1.22568">
        <ele>264.20001220703</ele>
        <time>2025-06-22T08:57:49.000Z</time>
      </trkpt>
      <trkpt lat="45.74886" lon="1.22573">
        <ele>264</ele>
        <time>2025-06-22T08:57:51.000Z</time>
      </trkpt>
      <trkpt lat="45.74901" lon="1.2258">
        <ele>263.20001220703</ele>
        <time>2025-06-22T08:57:55.000Z</time>
      </trkpt>
      <trkpt lat="45.74906" lon="1.22579">
        <ele>263</ele>
        <time>2025-06-22T08:57:56.000Z</time>
      </trkpt>
      <trkpt lat="45.74914" lon="1.22581">
        <ele>262.39999389648</ele>
        <time>2025-06-22T08:57:58.000Z</time>
      </trkpt>
      <trkpt lat="45.74914" lon="1.22583">
        <ele>262.20001220703</ele>
        <time>2025-06-22T08:57:59.000Z</time>
      </trkpt>
      <trkpt lat="45.7492" lon="1.22591">
        <ele>261.79998779297</ele>
        <time>2025-06-22T08:58:02.000Z</time>
      </trkpt>
      <trkpt lat="45.7493" lon="1.22599">
        <ele>261.60000610352</ele>
        <time>2025-06-22T08:58:06.000Z</time>
      </trkpt>
      <trkpt lat="45.74934" lon="1.22604">
        <ele>261.39999389648</ele>
        <time>2025-06-22T08:58:08.000Z</time>
      </trkpt>
      <trkpt lat="45.74939" lon="1.22608">
        <ele>261.39999389648</ele>
        <time>2025-06-22T08:58:09.000Z</time>
      </trkpt>
      <trkpt lat="45.74942" lon="1.22612">
        <ele>261.39999389648</ele>
        <time>2025-06-22T08:58:10.000Z</time>
      </trkpt>
      <trkpt lat="45.7497" lon="1.22635">
        <ele>260.20001220703</ele>
        <time>2025-06-22T08:58:15.000Z</time>
      </trkpt>
      <trkpt lat="45.74977" lon="1.22643">
        <ele>260</ele>
        <time>2025-06-22T08:58:17.000Z</time>
      </trkpt>
      <trkpt lat="45.74982" lon="1.22651">
        <ele>259.60000610352</ele>
        <time>2025-06-22T08:58:19.000Z</time>
      </trkpt>
      <trkpt lat="45.74988" lon="1.22658">
        <ele>259</ele>
        <time>2025-06-22T08:58:21.000Z</time>
      </trkpt>
      <trkpt lat="45.75007" lon="1.22671">
        <ele>258.39999389648</ele>
        <time>2025-06-22T08:58:24.000Z</time>
      </trkpt>
      <trkpt lat="45.75021" lon="1.22684">
        <ele>258</ele>
        <time>2025-06-22T08:58:26.000Z</time>
      </trkpt>
      <trkpt lat="45.75034" lon="1.22698">
        <ele>257.79998779297</ele>
        <time>2025-06-22T08:58:28.000Z</time>
      </trkpt>
      <trkpt lat="45.7504" lon="1.22706">
        <ele>257.20001220703</ele>
        <time>2025-06-22T08:58:30.000Z</time>
      </trkpt>
      <trkpt lat="45.75049" lon="1.22714">
        <ele>255.80000305176</ele>
        <time>2025-06-22T08:58:32.000Z</time>
      </trkpt>
      <trkpt lat="45.75053" lon="1.22716">
        <ele>255.60000610352</ele>
        <time>2025-06-22T08:58:33.000Z</time>
      </trkpt>
      <trkpt lat="45.75056" lon="1.2272">
        <ele>255</ele>
        <time>2025-06-22T08:58:34.000Z</time>
      </trkpt>
      <trkpt lat="45.75059" lon="1.22722">
        <ele>254.39999389648</ele>
        <time>2025-06-22T08:58:35.000Z</time>
      </trkpt>
      <trkpt lat="45.75061" lon="1.22725">
        <ele>254.19999694824</ele>
        <time>2025-06-22T08:58:36.000Z</time>
      </trkpt>
      <trkpt lat="45.75064" lon="1.22727">
        <ele>254.19999694824</ele>
        <time>2025-06-22T08:58:37.000Z</time>
      </trkpt>
      <trkpt lat="45.75065" lon="1.22729">
        <ele>254</ele>
        <time>2025-06-22T08:58:38.000Z</time>
      </trkpt>
      <trkpt lat="45.75074" lon="1.22735">
        <ele>254</ele>
        <time>2025-06-22T08:58:42.000Z</time>
      </trkpt>
      <trkpt lat="45.75078" lon="1.2274">
        <ele>254.39999389648</ele>
        <time>2025-06-22T08:58:44.000Z</time>
      </trkpt>
      <trkpt lat="45.75081" lon="1.22753">
        <ele>254.60000610352</ele>
        <time>2025-06-22T08:58:48.000Z</time>
      </trkpt>
      <trkpt lat="45.75091" lon="1.2277">
        <ele>254</ele>
        <time>2025-06-22T08:58:53.000Z</time>
      </trkpt>
      <trkpt lat="45.75095" lon="1.22781">
        <ele>259.7</ele>
        <time>2025-06-22T08:58:57.000Z</time>
      </trkpt>
      <trkpt lat="45.75097" lon="1.22783">
        <ele>259.6</ele>
        <time>2025-06-22T08:58:58.000Z</time>
      </trkpt>
      <trkpt lat="45.75101" lon="1.22785">
        <ele>259.2</ele>
        <time>2025-06-22T08:59:01.000Z</time>
      </trkpt>
      <trkpt lat="45.75104" lon="1.22784">
        <ele>258.6</ele>
        <time>2025-06-22T08:59:02.000Z</time>
      </trkpt>
      <trkpt lat="45.75107" lon="1.22784">
        <ele>258.2</ele>
        <time>2025-06-22T08:59:03.000Z</time>
      </trkpt>
      <trkpt lat="45.7511" lon="1.22786">
        <ele>251.80000305176</ele>
        <time>2025-06-22T09:08:33.000Z</time>
      </trkpt>
      <trkpt lat="45.75112" lon="1.22782">
        <ele>252.39999389648</ele>
        <time>2025-06-22T09:08:59.000Z</time>
      </trkpt>
      <trkpt lat="45.7511" lon="1.22777">
        <ele>253</ele>
        <time>2025-06-22T09:09:18.000Z</time>
      </trkpt>
      <trkpt lat="45.75114" lon="1.22774">
        <ele>253.60000610352</ele>
        <time>2025-06-22T09:09:27.000Z</time>
      </trkpt>
      <trkpt lat="45.75115" lon="1.22774">
        <ele>253.80000305176</ele>
        <time>2025-06-22T09:09:49.000Z</time>
      </trkpt>
      <trkpt lat="45.75125" lon="1.22785">
        <ele>253.39999389648</ele>
        <time>2025-06-22T09:09:53.000Z</time>
      </trkpt>
      <trkpt lat="45.75126" lon="1.22787">
        <ele>253.39999389648</ele>
        <time>2025-06-22T09:09:54.000Z</time>
      </trkpt>
      <trkpt lat="45.75129" lon="1.2279">
        <ele>253</ele>
        <time>2025-06-22T09:09:55.000Z</time>
      </trkpt>
      <trkpt lat="45.7513" lon="1.22793">
        <ele>252.80000305176</ele>
        <time>2025-06-22T09:09:56.000Z</time>
      </trkpt>
      <trkpt lat="45.75133" lon="1.22795">
        <ele>251.80000305176</ele>
        <time>2025-06-22T09:09:58.000Z</time>
      </trkpt>
      <trkpt lat="45.75136" lon="1.22794">
        <ele>251.19999694824</ele>
        <time>2025-06-22T09:10:00.000Z</time>
      </trkpt>
      <trkpt lat="45.75139" lon="1.22794">
        <ele>251</ele>
        <time>2025-06-22T09:10:04.000Z</time>
      </trkpt>
      <trkpt lat="45.75146" lon="1.22797">
        <ele>251</ele>
        <time>2025-06-22T09:10:08.000Z</time>
      </trkpt>
      <trkpt lat="45.75154" lon="1.22793">
        <ele>252</ele>
        <time>2025-06-22T09:10:12.000Z</time>
      </trkpt>
      <trkpt lat="45.75156" lon="1.22793">
        <ele>252.60000610352</ele>
        <time>2025-06-22T09:10:14.000Z</time>
      </trkpt>
      <trkpt lat="45.75155" lon="1.22794">
        <ele>253.39999389648</ele>
        <time>2025-06-22T09:10:16.000Z</time>
      </trkpt>
      <trkpt lat="45.75166" lon="1.228">
        <ele>254</ele>
        <time>2025-06-22T09:10:21.000Z</time>
      </trkpt>
      <trkpt lat="45.75173" lon="1.22806">
        <ele>254.39999389648</ele>
        <time>2025-06-22T09:10:23.000Z</time>
      </trkpt>
      <trkpt lat="45.75182" lon="1.22811">
        <ele>254.39999389648</ele>
        <time>2025-06-22T09:10:26.000Z</time>
      </trkpt>
      <trkpt lat="45.75183" lon="1.22813">
        <ele>254.60000610352</ele>
        <time>2025-06-22T09:10:27.000Z</time>
      </trkpt>
      <trkpt lat="45.75189" lon="1.22815">
        <ele>254.60000610352</ele>
        <time>2025-06-22T09:10:29.000Z</time>
      </trkpt>
      <trkpt lat="45.75196" lon="1.2282">
        <ele>254.39999389648</ele>
        <time>2025-06-22T09:10:31.000Z</time>
      </trkpt>
      <trkpt lat="45.75201" lon="1.22826">
        <ele>254.19999694824</ele>
        <time>2025-06-22T09:10:33.000Z</time>
      </trkpt>
      <trkpt lat="45.75208" lon="1.22839">
        <ele>253.19999694824</ele>
        <time>2025-06-22T09:10:37.000Z</time>
      </trkpt>
      <trkpt lat="45.75213" lon="1.22844">
        <ele>252.39999389648</ele>
        <time>2025-06-22T09:10:39.000Z</time>
      </trkpt>
      <trkpt lat="45.75216" lon="1.22846">
        <ele>251.80000305176</ele>
        <time>2025-06-22T09:10:40.000Z</time>
      </trkpt>
      <trkpt lat="45.7522" lon="1.22852">
        <ele>250.80000305176</ele>
        <time>2025-06-22T09:10:42.000Z</time>
      </trkpt>
      <trkpt lat="45.75222" lon="1.2286">
        <ele>249.80000305176</ele>
        <time>2025-06-22T09:10:44.000Z</time>
      </trkpt>
      <trkpt lat="45.75232" lon="1.22868">
        <ele>248.19999694824</ele>
        <time>2025-06-22T09:10:49.000Z</time>
      </trkpt>
      <trkpt lat="45.75237" lon="1.2287">
        <ele>247.80000305176</ele>
        <time>2025-06-22T09:10:53.000Z</time>
      </trkpt>
      <trkpt lat="45.75238" lon="1.22873">
        <ele>247.60000610352</ele>
        <time>2025-06-22T09:10:55.000Z</time>
      </trkpt>
      <trkpt lat="45.75239" lon="1.22873">
        <ele>247.80000305176</ele>
        <time>2025-06-22T09:10:57.000Z</time>
      </trkpt>
      <trkpt lat="45.75243" lon="1.22876">
        <ele>247.80000305176</ele>
        <time>2025-06-22T09:10:58.000Z</time>
      </trkpt>
      <trkpt lat="45.75253" lon="1.22879">
        <ele>247.80000305176</ele>
        <time>2025-06-22T09:10:59.000Z</time>
      </trkpt>
      <trkpt lat="45.75255" lon="1.22885">
        <ele>244.4</ele>
        <time>2025-06-22T09:11:07.000Z</time>
      </trkpt>
      <trkpt lat="45.7526" lon="1.22894">
        <ele>249.19999694824</ele>
        <time>2025-06-22T09:11:13.000Z</time>
      </trkpt>
      <trkpt lat="45.75263" lon="1.22898">
        <ele>249</ele>
        <time>2025-06-22T09:11:14.000Z</time>
      </trkpt>
      <trkpt lat="45.75264" lon="1.22901">
        <ele>248.80000305176</ele>
        <time>2025-06-22T09:11:15.000Z</time>
      </trkpt>
      <trkpt lat="45.75267" lon="1.22905">
        <ele>248.19999694824</ele>
        <time>2025-06-22T09:11:17.000Z</time>
      </trkpt>
      <trkpt lat="45.75272" lon="1.22927">
        <ele>245.39999389648</ele>
        <time>2025-06-22T09:11:24.000Z</time>
      </trkpt>
      <trkpt lat="45.75272" lon="1.2293">
        <ele>245</ele>
        <time>2025-06-22T09:11:25.000Z</time>
      </trkpt>
      <trkpt lat="45.75276" lon="1.22941">
        <ele>243.60000610352</ele>
        <time>2025-06-22T09:11:32.000Z</time>
      </trkpt>
      <trkpt lat="45.75277" lon="1.2296">
        <ele>242.80000305176</ele>
        <time>2025-06-22T09:11:35.000Z</time>
      </trkpt>
      <trkpt lat="45.75285" lon="1.22984">
        <ele>242.39999389648</ele>
        <time>2025-06-22T09:11:38.000Z</time>
      </trkpt>
      <trkpt lat="45.75292" lon="1.22998">
        <ele>242</ele>
        <time>2025-06-22T09:11:40.000Z</time>
      </trkpt>
      <trkpt lat="45.75296" lon="1.23001">
        <ele>242</ele>
        <time>2025-06-22T09:11:41.000Z</time>
      </trkpt>
      <trkpt lat="45.75299" lon="1.23008">
        <ele>241.19999694824</ele>
        <time>2025-06-22T09:11:45.000Z</time>
      </trkpt>
      <trkpt lat="45.7531" lon="1.23018">
        <ele>240.60000610352</ele>
        <time>2025-06-22T09:11:49.000Z</time>
      </trkpt>
      <trkpt lat="45.75312" lon="1.23022">
        <ele>240.60000610352</ele>
        <time>2025-06-22T09:11:50.000Z</time>
      </trkpt>
      <trkpt lat="45.75319" lon="1.23028">
        <ele>240.39999389648</ele>
        <time>2025-06-22T09:11:52.000Z</time>
      </trkpt>
      <trkpt lat="45.75324" lon="1.23031">
        <ele>240.39999389648</ele>
        <time>2025-06-22T09:11:53.000Z</time>
      </trkpt>
      <trkpt lat="45.75332" lon="1.23033">
        <ele>240.39999389648</ele>
        <time>2025-06-22T09:11:56.000Z</time>
      </trkpt>
      <trkpt lat="45.75333" lon="1.23034">
        <ele>240.39999389648</ele>
        <time>2025-06-22T09:11:57.000Z</time>
      </trkpt>
      <trkpt lat="45.75333" lon="1.23037">
        <ele>240.39999389648</ele>
        <time>2025-06-22T09:11:58.000Z</time>
      </trkpt>
      <trkpt lat="45.75338" lon="1.23044">
        <ele>240.19999694824</ele>
        <time>2025-06-22T09:12:01.000Z</time>
      </trkpt>
      <trkpt lat="45.75341" lon="1.23046">
        <ele>240.19999694824</ele>
        <time>2025-06-22T09:12:02.000Z</time>
      </trkpt>
      <trkpt lat="45.75348" lon="1.23048">
        <ele>240.19999694824</ele>
        <time>2025-06-22T09:12:04.000Z</time>
      </trkpt>
      <trkpt lat="45.7535" lon="1.2305">
        <ele>240.19999694824</ele>
        <time>2025-06-22T09:12:05.000Z</time>
      </trkpt>
      <trkpt lat="45.75374" lon="1.23066">
        <ele>240.39999389648</ele>
        <time>2025-06-22T09:12:11.000Z</time>
      </trkpt>
      <trkpt lat="45.75381" lon="1.23079">
        <ele>240.39999389648</ele>
        <time>2025-06-22T09:12:14.000Z</time>
      </trkpt>
      <trkpt lat="45.75381" lon="1.23091">
        <ele>240.39999389648</ele>
        <time>2025-06-22T09:12:17.000Z</time>
      </trkpt>
      <trkpt lat="45.75402" lon="1.23109">
        <ele>239.80000305176</ele>
        <time>2025-06-22T09:12:22.000Z</time>
      </trkpt>
      <trkpt lat="45.75403" lon="1.23109">
        <ele>239.80000305176</ele>
        <time>2025-06-22T09:12:24.000Z</time>
      </trkpt>
      <trkpt lat="45.75405" lon="1.23111">
        <ele>239.80000305176</ele>
        <time>2025-06-22T09:12:26.000Z</time>
      </trkpt>
      <trkpt lat="45.75417" lon="1.23118">
        <ele>240</ele>
        <time>2025-06-22T09:12:30.000Z</time>
      </trkpt>
      <trkpt lat="45.75423" lon="1.23124">
        <ele>240.19999694824</ele>
        <time>2025-06-22T09:12:32.000Z</time>
      </trkpt>
      <trkpt lat="45.75425" lon="1.23127">
        <ele>240.39999389648</ele>
        <time>2025-06-22T09:12:33.000Z</time>
      </trkpt>
      <trkpt lat="45.75432" lon="1.23129">
        <ele>240.60000610352</ele>
        <time>2025-06-22T09:12:35.000Z</time>
      </trkpt>
      <trkpt lat="45.75433" lon="1.23134">
        <ele>242</ele>
        <time>2025-06-22T09:12:38.000Z</time>
      </trkpt>
      <trkpt lat="45.75436" lon="1.23136">
        <ele>242.19999694824</ele>
        <time>2025-06-22T09:12:40.000Z</time>
      </trkpt>
      <trkpt lat="45.75442" lon="1.23142">
        <ele>242.39999389648</ele>
        <time>2025-06-22T09:12:42.000Z</time>
      </trkpt>
      <trkpt lat="45.75444" lon="1.23143">
        <ele>242.80000305176</ele>
        <time>2025-06-22T09:12:44.000Z</time>
      </trkpt>
      <trkpt lat="45.7545" lon="1.23144">
        <ele>242.80000305176</ele>
        <time>2025-06-22T09:12:46.000Z</time>
      </trkpt>
      <trkpt lat="45.75454" lon="1.23148">
        <ele>243</ele>
        <time>2025-06-22T09:12:48.000Z</time>
      </trkpt>
      <trkpt lat="45.75458" lon="1.2315">
        <ele>243</ele>
        <time>2025-06-22T09:12:49.000Z</time>
      </trkpt>
      <trkpt lat="45.75464" lon="1.23156">
        <ele>243</ele>
        <time>2025-06-22T09:12:51.000Z</time>
      </trkpt>
      <trkpt lat="45.75467" lon="1.23157">
        <ele>242.80000305176</ele>
        <time>2025-06-22T09:12:52.000Z</time>
      </trkpt>
      <trkpt lat="45.75469" lon="1.23161">
        <ele>242.60000610352</ele>
        <time>2025-06-22T09:12:53.000Z</time>
      </trkpt>
      <trkpt lat="45.75474" lon="1.23166">
        <ele>242.60000610352</ele>
        <time>2025-06-22T09:12:55.000Z</time>
      </trkpt>
      <trkpt lat="45.75475" lon="1.23168">
        <ele>242.60000610352</ele>
        <time>2025-06-22T09:12:56.000Z</time>
      </trkpt>
      <trkpt lat="45.75481" lon="1.23171">
        <ele>242.60000610352</ele>
        <time>2025-06-22T09:12:58.000Z</time>
      </trkpt>
      <trkpt lat="45.75483" lon="1.23173">
        <ele>242.80000305176</ele>
        <time>2025-06-22T09:12:59.000Z</time>
      </trkpt>
      <trkpt lat="45.75486" lon="1.23178">
        <ele>243.19999694824</ele>
        <time>2025-06-22T09:13:00.000Z</time>
      </trkpt>
      <trkpt lat="45.75492" lon="1.23183">
        <ele>243.60000610352</ele>
        <time>2025-06-22T09:13:02.000Z</time>
      </trkpt>
      <trkpt lat="45.75496" lon="1.23189">
        <ele>244.19999694824</ele>
        <time>2025-06-22T09:13:06.000Z</time>
      </trkpt>
      <trkpt lat="45.75499" lon="1.23192">
        <ele>244.19999694824</ele>
        <time>2025-06-22T09:13:07.000Z</time>
      </trkpt>
      <trkpt lat="45.75501" lon="1.23192">
        <ele>244.39999389648</ele>
        <time>2025-06-22T09:13:08.000Z</time>
      </trkpt>
      <trkpt lat="45.75523" lon="1.23225">
        <ele>237.2</ele>
        <time>2025-06-22T09:13:26.000Z</time>
      </trkpt>
      <trkpt lat="45.75536" lon="1.23266">
        <ele>232.6</ele>
        <time>2025-06-22T09:13:36.000Z</time>
      </trkpt>
      <trkpt lat="45.75535" lon="1.23292">
        <ele>229</ele>
        <time>2025-06-22T09:13:42.000Z</time>
      </trkpt>
      <trkpt lat="45.75552" lon="1.23327">
        <ele>227.5</ele>
        <time>2025-06-22T09:13:48.000Z</time>
      </trkpt>
      <trkpt lat="45.75559" lon="1.23349">
        <ele>226.8</ele>
        <time>2025-06-22T09:13:52.000Z</time>
      </trkpt>
      <trkpt lat="45.75566" lon="1.23359">
        <ele>226.5</ele>
        <time>2025-06-22T09:13:54.000Z</time>
      </trkpt>
      <trkpt lat="45.75585" lon="1.2337">
        <ele>227</ele>
        <time>2025-06-22T09:14:01.000Z</time>
      </trkpt>
      <trkpt lat="45.75597" lon="1.23383">
        <ele>228.5</ele>
        <time>2025-06-22T09:14:05.000Z</time>
      </trkpt>
      <trkpt lat="45.75609" lon="1.23407">
        <ele>227.9</ele>
        <time>2025-06-22T09:14:12.000Z</time>
      </trkpt>
      <trkpt lat="45.75615" lon="1.23426">
        <ele>227.8</ele>
        <time>2025-06-22T09:14:15.000Z</time>
      </trkpt>
      <trkpt lat="45.75619" lon="1.23443">
        <ele>227.6</ele>
        <time>2025-06-22T09:14:17.000Z</time>
      </trkpt>
      <trkpt lat="45.75626" lon="1.23463">
        <ele>227.6</ele>
        <time>2025-06-22T09:14:22.000Z</time>
      </trkpt>
      <trkpt lat="45.75636" lon="1.23474">
        <ele>226.4</ele>
        <time>2025-06-22T09:14:25.000Z</time>
      </trkpt>
      <trkpt lat="45.75652" lon="1.23481">
        <ele>226</ele>
        <time>2025-06-22T09:14:37.000Z</time>
      </trkpt>
      <trkpt lat="45.75693" lon="1.23523">
        <ele>223.3</ele>
        <time>2025-06-22T09:14:50.000Z</time>
      </trkpt>
      <trkpt lat="45.75722" lon="1.23546">
        <ele>223.19999694824</ele>
        <time>2025-06-22T09:14:58.000Z</time>
      </trkpt>
      <trkpt lat="45.75751" lon="1.23576">
        <ele>221.4</ele>
      </trkpt>
      <trkpt lat="45.75774" lon="1.23603">
        <ele>220.7</ele>
        <time>2025-06-22T09:15:17.000Z</time>
      </trkpt>
      <trkpt lat="45.75791" lon="1.23653">
        <ele>221.4</ele>
        <time>2025-06-22T09:15:30.000Z</time>
      </trkpt>
      <trkpt lat="45.75815" lon="1.23656">
        <ele>219.8</ele>
        <time>2025-06-22T09:15:31.000Z</time>
      </trkpt>
      <trkpt lat="45.75821" lon="1.2366">
        <ele>219.8</ele>
        <time>2025-06-22T09:15:37.000Z</time>
      </trkpt>
      <trkpt lat="45.75825" lon="1.23668">
        <ele>219.3</ele>
        <time>2025-06-22T09:15:43.000Z</time>
      </trkpt>
      <trkpt lat="45.75857" lon="1.23684">
        <ele>218.9</ele>
        <time>2025-06-22T09:16:12.000Z</time>
      </trkpt>
      <trkpt lat="45.75898" lon="1.23714">
        <ele>217.6</ele>
        <time>2025-06-22T09:16:24.000Z</time>
      </trkpt>
      <trkpt lat="45.75922" lon="1.23717">
        <ele>218.7</ele>
        <time>2025-06-22T09:16:31.000Z</time>
      </trkpt>
      <trkpt lat="45.75967" lon="1.23726">
        <ele>218.60000610352</ele>
        <time>2025-06-22T09:16:59.000Z</time>
      </trkpt>
      <trkpt lat="45.76007" lon="1.23737">
        <ele>217.5</ele>
        <time>2025-06-22T09:17:09.000Z</time>
      </trkpt>
      <trkpt lat="45.76108" lon="1.23746">
        <ele>220</ele>
        <time>2025-06-22T09:17:38.000Z</time>
      </trkpt>
      <trkpt lat="45.76155" lon="1.23736">
        <ele>217.80000305176</ele>
        <time>2025-06-22T09:17:52.000Z</time>
      </trkpt>
      <trkpt lat="45.76183" lon="1.23708">
        <ele>218.3</ele>
        <time>2025-06-22T09:18:08.000Z</time>
      </trkpt>
      <trkpt lat="45.76235" lon="1.23681">
        <ele>216.6</ele>
      </trkpt>
      <trkpt lat="45.76279" lon="1.23652">
        <ele>217.5</ele>
        <time>2025-06-22T09:18:43.000Z</time>
      </trkpt>
      <trkpt lat="45.76326" lon="1.23606">
        <ele>218.2</ele>
        <time>2025-06-22T09:18:58.000Z</time>
      </trkpt>
      <trkpt lat="45.76392" lon="1.23526">
        <ele>217</ele>
        <time>2025-06-22T09:19:21.000Z</time>
      </trkpt>
      <trkpt lat="45.76429" lon="1.23491">
        <ele>216.2</ele>
        <time>2025-06-22T09:19:34.000Z</time>
      </trkpt>
      <trkpt lat="45.76447" lon="1.23466">
        <ele>216.1</ele>
      </trkpt>
      <trkpt lat="45.76497" lon="1.23383">
        <ele>215</ele>
        <time>2025-06-22T09:20:02.000Z</time>
      </trkpt>
      <trkpt lat="45.76509" lon="1.23349">
        <ele>217.1</ele>
        <time>2025-06-22T09:20:13.000Z</time>
      </trkpt>
      <trkpt lat="45.7653" lon="1.23308">
        <ele>219.2</ele>
        <time>2025-06-22T09:20:23.000Z</time>
      </trkpt>
      <trkpt lat="45.76554" lon="1.23259">
        <ele>218.1</ele>
        <time>2025-06-22T09:20:29.000Z</time>
      </trkpt>
      <trkpt lat="45.76576" lon="1.23207">
        <ele>215.9</ele>
        <time>2025-06-22T09:20:37.000Z</time>
      </trkpt>
      <trkpt lat="45.76597" lon="1.2312">
        <ele>215.6</ele>
        <time>2025-06-22T09:20:58.000Z</time>
      </trkpt>
      <trkpt lat="45.76601" lon="1.23084">
        <ele>216.4</ele>
        <time>2025-06-22T09:21:25.000Z</time>
      </trkpt>
      <trkpt lat="45.76598" lon="1.23072">
        <ele>218.4</ele>
        <time>2025-06-22T09:21:27.000Z</time>
      </trkpt>
      <trkpt lat="45.76604" lon="1.23025">
        <ele>222.7</ele>
        <time>2025-06-22T09:24:06.000Z</time>
      </trkpt>
      <trkpt lat="45.76635" lon="1.22971">
        <ele>219.2</ele>
        <time>2025-06-22T09:24:17.000Z</time>
      </trkpt>
      <trkpt lat="45.76635" lon="1.22955">
        <ele>219.8</ele>
        <time>2025-06-22T09:24:18.000Z</time>
      </trkpt>
      <trkpt lat="45.76631" lon="1.22924">
        <ele>221.9</ele>
      </trkpt>
      <trkpt lat="45.76633" lon="1.22912">
        <ele>221.7</ele>
        <time>2025-06-22T09:24:28.000Z</time>
      </trkpt>
      <trkpt lat="45.76644" lon="1.22894">
        <ele>221.1</ele>
        <time>2025-06-22T09:24:34.000Z</time>
      </trkpt>
      <trkpt lat="45.76661" lon="1.22879">
        <ele>221.2</ele>
        <time>2025-06-22T09:24:41.000Z</time>
      </trkpt>
      <trkpt lat="45.7667" lon="1.22872">
        <ele>220.9</ele>
        <time>2025-06-22T09:24:50.000Z</time>
      </trkpt>
      <trkpt lat="45.76705" lon="1.22726">
        <ele>223.9</ele>
        <time>2025-06-22T09:25:12.000Z</time>
      </trkpt>
      <trkpt lat="45.76758" lon="1.22588">
        <ele>220.4</ele>
        <time>2025-06-22T09:25:35.000Z</time>
      </trkpt>
      <trkpt lat="45.76762" lon="1.22581">
        <ele>220.2</ele>
        <time>2025-06-22T09:25:36.000Z</time>
      </trkpt>
      <trkpt lat="45.76767" lon="1.22577">
        <ele>219.5</ele>
        <time>2025-06-22T09:25:37.000Z</time>
      </trkpt>
      <trkpt lat="45.76781" lon="1.22543">
        <ele>218.6</ele>
        <time>2025-06-22T09:25:41.000Z</time>
      </trkpt>
      <trkpt lat="45.76821" lon="1.2248">
        <ele>215.4</ele>
        <time>2025-06-22T09:25:48.000Z</time>
      </trkpt>
      <trkpt lat="45.76856" lon="1.22403">
        <ele>214</ele>
        <time>2025-06-22T09:25:58.000Z</time>
      </trkpt>
      <trkpt lat="45.76883" lon="1.22334">
        <ele>220.6</ele>
        <time>2025-06-22T09:26:05.000Z</time>
      </trkpt>
      <trkpt lat="45.76881" lon="1.22329">
        <ele>222</ele>
        <time>2025-06-22T09:26:13.000Z</time>
      </trkpt>
      <trkpt lat="45.7682" lon="1.22433">
        <ele>223.6</ele>
        <time>2025-06-22T09:26:59.000Z</time>
      </trkpt>
      <trkpt lat="45.76743" lon="1.2254">
        <ele>234.2</ele>
        <time>2025-06-22T09:28:03.000Z</time>
      </trkpt>
      <trkpt lat="45.76712" lon="1.22567">
        <ele>241.5</ele>
      </trkpt>
      <trkpt lat="45.7669" lon="1.2259">
        <ele>245.5</ele>
        <time>2025-06-22T09:29:15.000Z</time>
      </trkpt>
      <trkpt lat="45.76682" lon="1.22621">
        <ele>246.3</ele>
        <time>2025-06-22T09:29:27.000Z</time>
      </trkpt>
      <trkpt lat="45.76619" lon="1.22703">
        <ele>260.8</ele>
        <time>2025-06-22T09:30:50.000Z</time>
      </trkpt>
      <trkpt lat="45.76619" lon="1.22671">
        <ele>266.8</ele>
        <time>2025-06-22T09:31:37.000Z</time>
      </trkpt>
      <trkpt lat="45.76617" lon="1.22645">
        <ele>272.4</ele>
        <time>2025-06-22T09:32:14.000Z</time>
      </trkpt>
      <trkpt lat="45.76602" lon="1.22628">
        <ele>277.4</ele>
        <time>2025-06-22T09:32:34.000Z</time>
      </trkpt>
      <trkpt lat="45.76605" lon="1.22599">
        <ele>283.3</ele>
        <time>2025-06-22T09:33:07.000Z</time>
      </trkpt>
      <trkpt lat="45.76592" lon="1.22593">
        <ele>285.3</ele>
        <time>2025-06-22T09:33:59.000Z</time>
      </trkpt>
      <trkpt lat="45.76582" lon="1.22576">
        <ele>289.4</ele>
        <time>2025-06-22T09:34:07.000Z</time>
      </trkpt>
      <trkpt lat="45.76603" lon="1.22531">
        <ele>291.8</ele>
        <time>2025-06-22T09:34:26.000Z</time>
      </trkpt>
      <trkpt lat="45.7659" lon="1.22494">
        <ele>298.7</ele>
        <time>2025-06-22T09:35:02.000Z</time>
      </trkpt>
      <trkpt lat="45.76589" lon="1.2244">
        <ele>303.20001220703</ele>
        <time>2025-06-22T09:35:29.000Z</time>
      </trkpt>
      <trkpt lat="45.76521" lon="1.22295">
        <ele>317.5</ele>
        <time>2025-06-22T09:36:46.000Z</time>
      </trkpt>
      <trkpt lat="45.76521" lon="1.22284">
        <ele>318.2</ele>
        <time>2025-06-22T09:36:47.000Z</time>
      </trkpt>
      <trkpt lat="45.76524" lon="1.22281">
        <ele>318.1</ele>
        <time>2025-06-22T09:36:49.000Z</time>
      </trkpt>
      <trkpt lat="45.76529" lon="1.22278">
        <ele>318</ele>
        <time>2025-06-22T09:36:52.000Z</time>
      </trkpt>
      <trkpt lat="45.76543" lon="1.22271">
        <ele>317.39999389648</ele>
        <time>2025-06-22T09:37:01.000Z</time>
      </trkpt>
      <trkpt lat="45.76554" lon="1.22266">
        <ele>318.20001220703</ele>
        <time>2025-06-22T09:37:09.000Z</time>
      </trkpt>
      <trkpt lat="45.7656" lon="1.22263">
        <ele>318.60000610352</ele>
        <time>2025-06-22T09:37:13.000Z</time>
      </trkpt>
      <trkpt lat="45.76567" lon="1.22259">
        <ele>321.3</ele>
        <time>2025-06-22T09:37:18.000Z</time>
      </trkpt>
      <trkpt lat="45.7657" lon="1.22255">
        <ele>321.9</ele>
        <time>2025-06-22T09:37:22.000Z</time>
      </trkpt>
      <trkpt lat="45.76571" lon="1.22251">
        <ele>322.5</ele>
        <time>2025-06-22T09:37:23.000Z</time>
      </trkpt>
      <trkpt lat="45.76572" lon="1.22244">
        <ele>323.2</ele>
        <time>2025-06-22T09:37:25.000Z</time>
      </trkpt>
      <trkpt lat="45.76553" lon="1.22123">
        <ele>328.6</ele>
        <time>2025-06-22T09:38:16.000Z</time>
      </trkpt>
      <trkpt lat="45.76549" lon="1.22073">
        <ele>328.39999389648</ele>
        <time>2025-06-22T09:38:32.000Z</time>
      </trkpt>
      <trkpt lat="45.76543" lon="1.21985">
        <ele>330.1</ele>
        <time>2025-06-22T09:38:53.000Z</time>
      </trkpt>
      <trkpt lat="45.76527" lon="1.2193">
        <ele>332.1</ele>
        <time>2025-06-22T09:39:09.000Z</time>
      </trkpt>
      <trkpt lat="45.76527" lon="1.2192">
        <ele>332.1</ele>
        <time>2025-06-22T09:39:13.000Z</time>
      </trkpt>
      <trkpt lat="45.76535" lon="1.2189">
        <ele>331.3</ele>
        <time>2025-06-22T09:39:20.000Z</time>
      </trkpt>
      <trkpt lat="45.76538" lon="1.21882">
        <ele>331</ele>
        <time>2025-06-22T09:39:24.000Z</time>
      </trkpt>
      <trkpt lat="45.76551" lon="1.2187">
        <ele>330.6</ele>
        <time>2025-06-22T09:39:30.000Z</time>
      </trkpt>
      <trkpt lat="45.76577" lon="1.21809">
        <ele>331.3</ele>
        <time>2025-06-22T09:39:44.000Z</time>
      </trkpt>
      <trkpt lat="45.76564" lon="1.21789">
        <ele>332.8</ele>
        <time>2025-06-22T09:39:51.000Z</time>
      </trkpt>
      <trkpt lat="45.7656" lon="1.21779">
        <ele>333.4</ele>
        <time>2025-06-22T09:39:58.000Z</time>
      </trkpt>
      <trkpt lat="45.76557" lon="1.21763">
        <ele>333.3</ele>
        <time>2025-06-22T09:40:00.000Z</time>
      </trkpt>
      <trkpt lat="45.76544" lon="1.21737">
        <ele>333.4</ele>
        <time>2025-06-22T09:40:06.000Z</time>
      </trkpt>
      <trkpt lat="45.76537" lon="1.21719">
        <ele>333.6</ele>
        <time>2025-06-22T09:40:15.000Z</time>
      </trkpt>
      <trkpt lat="45.76538" lon="1.21689">
        <ele>333.2</ele>
        <time>2025-06-22T09:40:23.000Z</time>
      </trkpt>
      <trkpt lat="45.76539" lon="1.2167">
        <ele>332.8</ele>
        <time>2025-06-22T09:40:27.000Z</time>
      </trkpt>
      <trkpt lat="45.76551" lon="1.21644">
        <ele>331.4</ele>
        <time>2025-06-22T09:40:28.000Z</time>
      </trkpt>
      <trkpt lat="45.76567" lon="1.2162">
        <ele>330.5</ele>
        <time>2025-06-22T09:40:34.000Z</time>
      </trkpt>
      <trkpt lat="45.76598" lon="1.21589">
        <ele>331.1</ele>
        <time>2025-06-22T09:40:50.000Z</time>
      </trkpt>
      <trkpt lat="45.76628" lon="1.21601">
        <ele>329.9</ele>
        <time>2025-06-22T09:40:57.000Z</time>
      </trkpt>
      <trkpt lat="45.76648" lon="1.21596">
        <ele>329.7</ele>
        <time>2025-06-22T09:41:05.000Z</time>
      </trkpt>
      <trkpt lat="45.76671" lon="1.21611">
        <ele>327.9</ele>
        <time>2025-06-22T09:41:06.000Z</time>
      </trkpt>
      <trkpt lat="45.76682" lon="1.2161">
        <ele>327.5</ele>
        <time>2025-06-22T09:41:09.000Z</time>
      </trkpt>
      <trkpt lat="45.76687" lon="1.21624">
        <ele>326.7</ele>
        <time>2025-06-22T09:41:12.000Z</time>
      </trkpt>
      <trkpt lat="45.76693" lon="1.21631">
        <ele>325.79998779297</ele>
        <time>2025-06-22T09:41:14.000Z</time>
      </trkpt>
      <trkpt lat="45.76713" lon="1.21628">
        <ele>325.39999389648</ele>
        <time>2025-06-22T09:41:19.000Z</time>
      </trkpt>
      <trkpt lat="45.76723" lon="1.21624">
        <ele>326.1</ele>
        <time>2025-06-22T09:41:21.000Z</time>
      </trkpt>
      <trkpt lat="45.76734" lon="1.21639">
        <ele>325.20001220703</ele>
        <time>2025-06-22T09:41:26.000Z</time>
      </trkpt>
      <trkpt lat="45.76753" lon="1.21645">
        <ele>323.8</ele>
        <time>2025-06-22T09:41:29.000Z</time>
      </trkpt>
      <trkpt lat="45.76766" lon="1.21641">
        <ele>323.9</ele>
        <time>2025-06-22T09:41:35.000Z</time>
      </trkpt>
      <trkpt lat="45.76786" lon="1.21625">
        <ele>323.7</ele>
        <time>2025-06-22T09:41:37.000Z</time>
      </trkpt>
      <trkpt lat="45.76799" lon="1.21599">
        <ele>323.1</ele>
        <time>2025-06-22T09:41:42.000Z</time>
      </trkpt>
      <trkpt lat="45.76841" lon="1.21493">
        <ele>317.3</ele>
        <time>2025-06-22T09:42:03.000Z</time>
      </trkpt>
      <trkpt lat="45.76854" lon="1.2145">
        <ele>315.2</ele>
      </trkpt>
      <trkpt lat="45.76858" lon="1.21404">
        <ele>312.1</ele>
        <time>2025-06-22T09:42:04.000Z</time>
      </trkpt>
      <trkpt lat="45.76855" lon="1.21352">
        <ele>308.9</ele>
      </trkpt>
      <trkpt lat="45.76858" lon="1.21317">
        <ele>306.4</ele>
        <time>2025-06-22T09:51:57.000Z</time>
      </trkpt>
      <trkpt lat="45.76872" lon="1.21239">
        <ele>300.5</ele>
      </trkpt>
      <trkpt lat="45.76873" lon="1.21221">
        <ele>298.9</ele>
      </trkpt>
      <trkpt lat="45.76866" lon="1.21199">
        <ele>297.4</ele>
      </trkpt>
      <trkpt lat="45.76806" lon="1.21114">
        <ele>292.2</ele>
        <time>2025-06-22T09:52:04.000Z</time>
      </trkpt>
      <trkpt lat="45.76799" lon="1.21098">
        <ele>291.6</ele>
      </trkpt>
      <trkpt lat="45.76793" lon="1.21089">
        <ele>290.9</ele>
        <time>2025-06-22T09:52:05.000Z</time>
      </trkpt>
      <trkpt lat="45.76793" lon="1.21038">
        <ele>287.4</ele>
        <time>2025-06-22T09:52:06.000Z</time>
      </trkpt>
      <trkpt lat="45.76796" lon="1.21007">
        <ele>286.8</ele>
        <time>2025-06-22T09:52:08.000Z</time>
      </trkpt>
      <trkpt lat="45.76804" lon="1.20979">
        <ele>286.9</ele>
        <time>2025-06-22T09:52:09.000Z</time>
      </trkpt>
      <trkpt lat="45.76768" lon="1.20953">
        <ele>289.3</ele>
        <time>2025-06-22T09:52:18.000Z</time>
      </trkpt>
      <trkpt lat="45.7676" lon="1.20939">
        <ele>290</ele>
        <time>2025-06-22T09:52:23.000Z</time>
      </trkpt>
      <trkpt lat="45.76756" lon="1.20923">
        <ele>291.2</ele>
        <time>2025-06-22T09:52:26.000Z</time>
      </trkpt>
      <trkpt lat="45.76747" lon="1.2082">
        <ele>296.2</ele>
        <time>2025-06-22T09:52:54.000Z</time>
      </trkpt>
      <trkpt lat="45.76741" lon="1.20806">
        <ele>297.3</ele>
        <time>2025-06-22T09:52:56.000Z</time>
      </trkpt>
      <trkpt lat="45.76715" lon="1.20814">
        <ele>298</ele>
        <time>2025-06-22T09:53:08.000Z</time>
      </trkpt>
      <trkpt lat="45.76656" lon="1.20834">
        <ele>299.3</ele>
        <time>2025-06-22T09:53:25.000Z</time>
      </trkpt>
      <trkpt lat="45.76638" lon="1.20844">
        <ele>299.3</ele>
      </trkpt>
      <trkpt lat="45.76593" lon="1.20881">
        <ele>300.8</ele>
        <time>2025-06-22T09:53:54.000Z</time>
      </trkpt>
      <trkpt lat="45.76585" lon="1.2087">
        <ele>302.2</ele>
        <time>2025-06-22T09:54:01.000Z</time>
      </trkpt>
      <trkpt lat="45.76528" lon="1.20652">
        <ele>312.5</ele>
        <time>2025-06-22T09:55:19.000Z</time>
      </trkpt>
      <trkpt lat="45.76521" lon="1.20655">
        <ele>312.6</ele>
        <time>2025-06-22T09:55:23.000Z</time>
      </trkpt>
      <trkpt lat="45.76505" lon="1.20599">
        <ele>313</ele>
        <time>2025-06-22T09:55:37.000Z</time>
      </trkpt>
      <trkpt lat="45.76486" lon="1.20548">
        <ele>312</ele>
        <time>2025-06-22T09:55:54.000Z</time>
        <extensions>
          <visugpx:TrkExtension xmlns:visugpx="https://www.visugpx.com/editgpx/">
            <visugpx:node>1</visugpx:node>
            </visugpx:TrkExtension>
        </extensions>
      </trkpt>
    </trkseg>
  </trk>
</gpx>